Observation data for Caprock Canyons on 11/14/2019      Previous  Date  Next       Current Mesonet Observations  Soil Data  Daily Summary Page  Observations in Plain Language
KQU1 140600Z 35007KT 06/M01 A3011 RMK A01 T00561006  RH  064%=      5-min Rain = 0
KQU1 140601Z 35007KT 06/M01 A3011 RMK A01 T00561006  RH  064%=      5-min Rain = 0
KQU1 140602Z 35007KT 06/M01 A3011 RMK A01 T00561006  RH  064%=      5-min Rain = 0
KQU1 140603Z 36008KT 06/M01 A3011 RMK A01 T00561007  RH  064%=      5-min Rain = 0
KQU1 140604Z 35008KT 06/M01 A3011 RMK A01 T00561007  RH  064%=      5-min Rain = 0
KQU1 140605Z 36007KT 06/M01 A3011 RMK A01 T00561007  RH  064%=      5-min Rain = 0
KQU1 140606Z 35008KT 06/M01 A3011 RMK A01 T00561007  RH  064%=      5-min Rain = 0
KQU1 140607Z 35007KT 06/M01 A3011 RMK A01 T00561007  RH  064%=      5-min Rain = 0
KQU1 140608Z 00008KT 06/M01 A3011 RMK A01 T00561007  RH  064%=      5-min Rain = 0
KQU1 140609Z 01008KT 06/M01 A3011 RMK A01 T00551008  RH  064%=      5-min Rain = 0
KQU1 140610Z 36009KT 06/M01 A3011 RMK A01 T00551007  RH  064%=      5-min Rain = 0
KQU1 140611Z 36008KT 06/M01 A3011 RMK A01 T00551008  RH  064%=      5-min Rain = 0
KQU1 140612Z 36007KT 06/M01 A3011 RMK A01 T00551007  RH  064%=      5-min Rain = 0
KQU1 140613Z 00008KT 06/M01 A3011 RMK A01 T00551008  RH  064%=      5-min Rain = 0
KQU1 140614Z 35008KT 06/M01 A3011 RMK A01 T00551008  RH  064%=      5-min Rain = 0
KQU1 140615Z 00008KT 05/M01 A3011 RMK A01 T00541008  RH  064%=      5-min Rain = 0
KQU1 140616Z 36008KT 05/M01 A3011 RMK A01 T00541009  RH  064%=      5-min Rain = 0
KQU1 140617Z 36008KT 05/M01 A3011 RMK A01 T00531009  RH  064%=      5-min Rain = 0
KQU1 140618Z 35008KT 05/M01 A3011 RMK A01 T00531009  RH  064%=      5-min Rain = 0
KQU1 140619Z 00007KT 05/M01 A3011 RMK A01 T00521009  RH  065%=      5-min Rain = 0
KQU1 140620Z 36007KT 05/M01 A3011 RMK A01 T00511009  RH  065%=      5-min Rain = 0
KQU1 140621Z 35008KT 05/M01 A3011 RMK A01 T00511009  RH  065%=      5-min Rain = 0
KQU1 140622Z 36008KT 05/M01 A3011 RMK A01 T00501009  RH  065%=      5-min Rain = 0
KQU1 140623Z 35008KT 05/M01 A3011 RMK A01 T00501009  RH  066%=      5-min Rain = 0
KQU1 140624Z 35008KT 05/M01 A3011 RMK A01 T00501009  RH  066%=      5-min Rain = 0
KQU1 140625Z 35008KT 05/M01 A3011 RMK A01 T00501009  RH  066%=      5-min Rain = 0
KQU1 140626Z 35007KT 05/M01 A3011 RMK A01 T00501009  RH  066%=      5-min Rain = 0
KQU1 140627Z 35008KT 05/M01 A3011 RMK A01 T00501009  RH  066%=      5-min Rain = 0
KQU1 140628Z 35008KT 05/M01 A3012 RMK A01 T00501009  RH  065%=      5-min Rain = 0
KQU1 140629Z 36008KT 05/M01 A3012 RMK A01 T00501010  RH  065%=      5-min Rain = 0
KQU1 140630Z 35006KT 05/M01 A3012 RMK A01 T00501010  RH  065%=      5-min Rain = 0
KQU1 140631Z 35008KT 05/M01 A3012 RMK A01 T00501009  RH  065%=      5-min Rain = 0
KQU1 140632Z 35008KT 05/M01 A3012 RMK A01 T00501010  RH  065%=      5-min Rain = 0
KQU1 140633Z 35010KT 05/M01 A3012 RMK A01 T00511010  RH  065%=      5-min Rain = 0
KQU1 140634Z 35008KT 05/M01 A3012 RMK A01 T00511010  RH  065%=      5-min Rain = 0
KQU1 140635Z 35008KT 05/M01 A3012 RMK A01 T00511010  RH  065%=      5-min Rain = 0
KQU1 140636Z 35008KT 05/M01 A3012 RMK A01 T00501011  RH  065%=      5-min Rain = 0
KQU1 140637Z 35008KT 05/M01 A3012 RMK A01 T00501011  RH  065%=      5-min Rain = 0
KQU1 140638Z 35008KT 05/M01 A3012 RMK A01 T00501011  RH  065%=      5-min Rain = 0
KQU1 140639Z 35007KT 05/M01 A3012 RMK A01 T00491011  RH  065%=      5-min Rain = 0
KQU1 140640Z 35007KT 05/M01 A3012 RMK A01 T00491011  RH  065%=      5-min Rain = 0
KQU1 140641Z 35007KT 05/M01 A3012 RMK A01 T00481011  RH  065%=      5-min Rain = 0
KQU1 140642Z 35008KT 05/M01 A3012 RMK A01 T00481012  RH  065%=      5-min Rain = 0
KQU1 140643Z 35009KT 05/M01 A3012 RMK A01 T00481012  RH  065%=      5-min Rain = 0
KQU1 140644Z 35007KT 05/M01 A3012 RMK A01 T00481012  RH  065%=      5-min Rain = 0
KQU1 140645Z 35009KT 05/M01 A3012 RMK A01 T00481012  RH  065%=      5-min Rain = 0
KQU1 140646Z 35008KT 05/M01 A3013 RMK A01 T00481012  RH  065%=      5-min Rain = 0
KQU1 140647Z 01008KT 05/M01 A3013 RMK A01 T00481013  RH  065%=      5-min Rain = 0
KQU1 140648Z 35007KT 05/M01 A3013 RMK A01 T00481013  RH  065%=      5-min Rain = 0
KQU1 140649Z 35007KT 05/M01 A3013 RMK A01 T00481013  RH  065%=      5-min Rain = 0
KQU1 140650Z 36007KT 05/M01 A3013 RMK A01 T00481013  RH  065%=      5-min Rain = 0
KQU1 140651Z 36007KT 05/M01 A3013 RMK A01 T00481013  RH  065%=      5-min Rain = 0
KQU1 140652Z 35008KT 05/M01 A3013 RMK A01 T00481013  RH  065%=      5-min Rain = 0
KQU1 140653Z 35009KT 05/M01 A3013 RMK A01 T00481014  RH  064%=      5-min Rain = 0
KQU1 140654Z 35009KT 05/M01 A3013 RMK A01 T00481013  RH  065%=      5-min Rain = 0
KQU1 140655Z 35008KT 05/M01 A3013 RMK A01 T00481014  RH  064%=      5-min Rain = 0
KQU1 140656Z 35007KT 05/M01 A3013 RMK A01 T00481014  RH  064%=      5-min Rain = 0
KQU1 140657Z 34008KT 05/M01 A3013 RMK A01 T00491014  RH  064%=      5-min Rain = 0
KQU1 140658Z 35008KT 05/M01 A3013 RMK A01 T00491014  RH  064%=      5-min Rain = 0
KQU1 140659Z 35010KT 05/M01 A3013 RMK A01 T00491014  RH  064%=      5-min Rain = 0
KQU1 140700Z 35009KT 05/M01 A3013 RMK A01 T00501014  RH  063%=      5-min Rain = 0
KQU1 140701Z 35008KT 05/M02 A3013 RMK A01 T00491015  RH  063%=      5-min Rain = 0
KQU1 140702Z 35009KT 05/M01 A3013 RMK A01 T00491014  RH  063%=      5-min Rain = 0
KQU1 140703Z 35009KT 05/M01 A3013 RMK A01 T00491014  RH  063%=      5-min Rain = 0
KQU1 140704Z 35009KT 05/M02 A3013 RMK A01 T00491015  RH  063%=      5-min Rain = 0
KQU1 140705Z 35008KT 05/M02 A3013 RMK A01 T00491015  RH  064%=      5-min Rain = 0
KQU1 140706Z 35009KT 05/M02 A3013 RMK A01 T00491015  RH  064%=      5-min Rain = 0
KQU1 140707Z 35009KT 05/M02 A3013 RMK A01 T00491015  RH  063%=      5-min Rain = 0
KQU1 140708Z 35009KT 05/M02 A3013 RMK A01 T00491015  RH  063%=      5-min Rain = 0
KQU1 140709Z 35008KT 05/M02 A3013 RMK A01 T00491015  RH  063%=      5-min Rain = 0
KQU1 140710Z 35008KT 05/M02 A3013 RMK A01 T00491015  RH  063%=      5-min Rain = 0
KQU1 140711Z 35008KT 05/M02 A3013 RMK A01 T00491015  RH  063%=      5-min Rain = 0
KQU1 140712Z 35011KT 05/M02 A3013 RMK A01 T00501015  RH  063%=      5-min Rain = 0
KQU1 140713Z 36009KT 05/M02 A3013 RMK A01 T00501016  RH  063%=      5-min Rain = 0
KQU1 140714Z 35008KT 05/M02 A3013 RMK A01 T00501015  RH  063%=      5-min Rain = 0
KQU1 140715Z 35007KT 05/M02 A3013 RMK A01 T00501015  RH  063%=      5-min Rain = 0
KQU1 140716Z 35007KT 05/M02 A3013 RMK A01 T00501015  RH  063%=      5-min Rain = 0
KQU1 140717Z 35007KT 05/M02 A3013 RMK A01 T00501015  RH  063%=      5-min Rain = 0
KQU1 140718Z 35008KT 05/M01 A3013 RMK A01 T00511014  RH  063%=      5-min Rain = 0
KQU1 140719Z 33009KT 05/M01 A3013 RMK A01 T00521014  RH  062%=      5-min Rain = 0
KQU1 140720Z 34009KT 05/M02 A3013 RMK A01 T00541015  RH  061%=      5-min Rain = 0
KQU1 140721Z 34008KT 06/M02 A3014 RMK A01 T00551015  RH  060%=      5-min Rain = 0
KQU1 140722Z 34009KT 06/M02 A3014 RMK A01 T00571015  RH  060%=      5-min Rain = 0
KQU1 140723Z 33011KT 06/M02 A3014 RMK A01 T00581015  RH  059%=      5-min Rain = 0
KQU1 140724Z 34008KT 06/M02 A3014 RMK A01 T00581016  RH  059%=      5-min Rain = 0
KQU1 140725Z 34011KT 06/M02 A3014 RMK A01 T00591016  RH  059%=      5-min Rain = 0
KQU1 140726Z 34007KT 06/M02 A3014 RMK A01 T00601016  RH  058%=      5-min Rain = 0
KQU1 140727Z 33008KT 06/M02 A3014 RMK A01 T00601017  RH  058%=      5-min Rain = 0
KQU1 140728Z 33006KT 06/M02 A3014 RMK A01 T00601017  RH  058%=      5-min Rain = 0
KQU1 140729Z 34006KT 06/M02 A3014 RMK A01 T00601017  RH  058%=      5-min Rain = 0
KQU1 140730Z 34006KT 06/M02 A3014 RMK A01 T00601017  RH  058%=      5-min Rain = 0
KQU1 140731Z 35008KT 06/M02 A3014 RMK A01 T00611016  RH  058%=      5-min Rain = 0
KQU1 140732Z 35006KT 06/M02 A3014 RMK A01 T00611016  RH  058%=      5-min Rain = 0
KQU1 140733Z 35007KT 06/M02 A3014 RMK A01 T00611016  RH  058%=      5-min Rain = 0
KQU1 140734Z 34008G13KT 06/M02 A3014 RMK A01 T00611017  RH  057%=      5-min Rain = 0
KQU1 140735Z 35008KT 06/M02 A3014 RMK A01 T00621017  RH  057%=      5-min Rain = 0
KQU1 140736Z 35006KT 06/M02 A3014 RMK A01 T00621016  RH  057%=      5-min Rain = 0
KQU1 140737Z 35005KT 06/M02 A3014 RMK A01 T00621016  RH  058%=      5-min Rain = 0
KQU1 140738Z 36006KT 06/M02 A3015 RMK A01 T00611016  RH  058%=      5-min Rain = 0
KQU1 140739Z 36008G13KT 06/M02 A3015 RMK A01 T00601016  RH  058%=      5-min Rain = 0
KQU1 140740Z 35007KT 06/M02 A3015 RMK A01 T00601017  RH  058%=      5-min Rain = 0
KQU1 140741Z 00007KT 06/M02 A3015 RMK A01 T00601018  RH  057%=      5-min Rain = 0
KQU1 140742Z 36006KT 06/M02 A3015 RMK A01 T00601019  RH  057%=      5-min Rain = 0
KQU1 140743Z 01007KT 06/M02 A3015 RMK A01 T00591019  RH  057%=      5-min Rain = 0
KQU1 140744Z 00005KT 06/M02 A3015 RMK A01 T00581020  RH  057%=      5-min Rain = 0
KQU1 140745Z 36007G12KT 06/M02 A3015 RMK A01 T00571020  RH  058%=      5-min Rain = 0
KQU1 140746Z 36007KT 06/M02 A3015 RMK A01 T00561020  RH  058%=      5-min Rain = 0
KQU1 140747Z 36008KT 06/M02 A3015 RMK A01 T00561020  RH  058%=      5-min Rain = 0
KQU1 140748Z 01010KT 06/M02 A3015 RMK A01 T00561021  RH  058%=      5-min Rain = 0
KQU1 140749Z 36009KT 06/M02 A3015 RMK A01 T00561021  RH  058%=      5-min Rain = 0
KQU1 140750Z 00008KT 06/M02 A3015 RMK A01 T00551021  RH  058%=      5-min Rain = 0
KQU1 140751Z 36008KT 06/M02 A3015 RMK A01 T00551021  RH  058%=      5-min Rain = 0
KQU1 140752Z 36010KT 05/M02 A3016 RMK A01 T00541022  RH  058%=      5-min Rain = 0
KQU1 140753Z 00010KT 05/M02 A3016 RMK A01 T00541022  RH  058%=      5-min Rain = 0
KQU1 140754Z 36010KT 05/M02 A3016 RMK A01 T00541023  RH  058%=      5-min Rain = 0
KQU1 140755Z 36008KT 05/M02 A3016 RMK A01 T00541022  RH  058%=      5-min Rain = 0
KQU1 140756Z 36007KT 05/M02 A3016 RMK A01 T00541022  RH  058%=      5-min Rain = 0
KQU1 140757Z 00008KT 05/M02 A3016 RMK A01 T00531022  RH  058%=      5-min Rain = 0
KQU1 140758Z 35009KT 05/M02 A3016 RMK A01 T00531023  RH  058%=      5-min Rain = 0
KQU1 140759Z 00009KT 05/M02 A3016 RMK A01 T00521023  RH  058%=      5-min Rain = 0
KQU1 140800Z 00008KT 05/M02 A3016 RMK A01 T00521023  RH  059%=      5-min Rain = 0
KQU1 140801Z 01008KT 05/M02 A3016 RMK A01 T00511023  RH  059%=      5-min Rain = 0
KQU1 140802Z 36008KT 05/M02 A3016 RMK A01 T00511023  RH  059%=      5-min Rain = 0
KQU1 140803Z 36009KT 05/M02 A3016 RMK A01 T00511023  RH  059%=      5-min Rain = 0
KQU1 140804Z 35008KT 05/M02 A3016 RMK A01 T00511024  RH  058%=      5-min Rain = 0
KQU1 140805Z 01009G14KT 05/M02 A3016 RMK A01 T00511023  RH  059%=      5-min Rain = 0
KQU1 140806Z 36010KT 05/M02 A3016 RMK A01 T00511024  RH  058%=      5-min Rain = 0
KQU1 140807Z 00009KT 05/M02 A3017 RMK A01 T00521024  RH  058%=      5-min Rain = 0
KQU1 140808Z 35008G13KT 05/M02 A3017 RMK A01 T00521024  RH  058%=      5-min Rain = 0
KQU1 140809Z 35009KT 05/M02 A3017 RMK A01 T00521024  RH  058%=      5-min Rain = 0
KQU1 140810Z 36008KT 05/M02 A3017 RMK A01 T00531024  RH  058%=      5-min Rain = 0
KQU1 140811Z 35010KT 05/M02 A3017 RMK A01 T00531024  RH  057%=      5-min Rain = 0
KQU1 140812Z 35011G16KT 05/M03 A3017 RMK A01 T00541025  RH  057%=      5-min Rain = 0
KQU1 140813Z 36010KT 05/M03 A3017 RMK A01 T00541025  RH  057%=      5-min Rain = 0
KQU1 140814Z 35009G14KT 05/M03 A3017 RMK A01 T00541025  RH  056%=      5-min Rain = 0
KQU1 140815Z 36011KT 06/M03 A3017 RMK A01 T00551026  RH  056%=      5-min Rain = 0
KQU1 140816Z 35010KT 06/M03 A3017 RMK A01 T00551026  RH  056%=      5-min Rain = 0
KQU1 140817Z 34012KT 06/M03 A3017 RMK A01 T00551028  RH  055%=      5-min Rain = 0
KQU1 140818Z 35009G14KT 06/M03 A3017 RMK A01 T00561027  RH  055%=      5-min Rain = 0
KQU1 140819Z 36009KT 06/M03 A3017 RMK A01 T00571028  RH  054%=      5-min Rain = 0
KQU1 140820Z 36008KT 06/M03 A3017 RMK A01 T00571028  RH  054%=      5-min Rain = 0
KQU1 140821Z 01006KT 06/M03 A3017 RMK A01 T00571028  RH  054%=      5-min Rain = 0
KQU1 140822Z 36008KT 06/M03 A3017 RMK A01 T00571029  RH  054%=      5-min Rain = 0
KQU1 140823Z 00009KT 06/M03 A3017 RMK A01 T00571030  RH  054%=      5-min Rain = 0
KQU1 140824Z 36008G14KT 06/M03 A3017 RMK A01 T00571030  RH  053%=      5-min Rain = 0
KQU1 140825Z 00009KT 06/M03 A3017 RMK A01 T00571031  RH  053%=      5-min Rain = 0
KQU1 140826Z 36010KT 06/M03 A3017 RMK A01 T00571031  RH  053%=      5-min Rain = 0
KQU1 140827Z 35010KT 06/M03 A3017 RMK A01 T00561032  RH  053%=      5-min Rain = 0
KQU1 140828Z 36010G15KT 06/M03 A3017 RMK A01 T00561032  RH  053%=      5-min Rain = 0
KQU1 140829Z 35012KT 06/M03 A3017 RMK A01 T00561033  RH  053%=      5-min Rain = 0
KQU1 140830Z 35012G17KT 06/M03 A3017 RMK A01 T00561032  RH  053%=      5-min Rain = 0
KQU1 140831Z 36015G21KT 06/M03 A3017 RMK A01 T00571033  RH  052%=      5-min Rain = 0
KQU1 140832Z 35012G24KT 06/M03 A3018 RMK A01 T00581033  RH  052%=      5-min Rain = 0
KQU1 140833Z 36014G20KT 06/M03 A3018 RMK A01 T00591033  RH  051%=      5-min Rain = 0
KQU1 140834Z 34008G13KT 06/M03 A3018 RMK A01 T00591033  RH  052%=      5-min Rain = 0
KQU1 140835Z 01009KT 06/M03 A3018 RMK A01 T00591033  RH  052%=      5-min Rain = 0
KQU1 140836Z 00012G18KT 06/M03 A3018 RMK A01 T00591033  RH  052%=      5-min Rain = 0
KQU1 140837Z 35012KT 06/M03 A3018 RMK A01 T00581034  RH  052%=      5-min Rain = 0
KQU1 140838Z 36012KT 06/M03 A3018 RMK A01 T00581033  RH  052%=      5-min Rain = 0
KQU1 140839Z 00011KT 06/M03 A3018 RMK A01 T00581033  RH  052%=      5-min Rain = 0
KQU1 140840Z 36008G14KT 06/M03 A3018 RMK A01 T00571033  RH  052%=      5-min Rain = 0
KQU1 140841Z 01010KT 06/M03 A3018 RMK A01 T00571034  RH  052%=      5-min Rain = 0
KQU1 140842Z 36007KT 06/M03 A3018 RMK A01 T00571033  RH  052%=      5-min Rain = 0
KQU1 140843Z 01009KT 06/M03 A3018 RMK A01 T00561033  RH  053%=      5-min Rain = 0
KQU1 140844Z 36009KT 06/M03 A3018 RMK A01 T00561033  RH  053%=      5-min Rain = 0
KQU1 140845Z 01009KT 06/M03 A3018 RMK A01 T00561033  RH  053%=      5-min Rain = 0
KQU1 140846Z 36010KT 06/M03 A3018 RMK A01 T00561034  RH  053%=      5-min Rain = 0
KQU1 140847Z 00009KT 06/M03 A3019 RMK A01 T00561033  RH  053%=      5-min Rain = 0
KQU1 140848Z 01009KT 06/M03 A3019 RMK A01 T00561033  RH  053%=      5-min Rain = 0
KQU1 140849Z 01007KT 06/M03 A3019 RMK A01 T00561034  RH  052%=      5-min Rain = 0
KQU1 140850Z 36009G14KT 06/M03 A3019 RMK A01 T00561034  RH  052%=      5-min Rain = 0
KQU1 140851Z 00006G11KT 06/M03 A3019 RMK A01 T00571034  RH  052%=      5-min Rain = 0
KQU1 140852Z 00010KT 06/M03 A3019 RMK A01 T00561034  RH  052%=      5-min Rain = 0
KQU1 140853Z 00006KT 06/M03 A3019 RMK A01 T00561034  RH  052%=      5-min Rain = 0
KQU1 140854Z 35010KT 06/M03 A3019 RMK A01 T00561034  RH  052%=      5-min Rain = 0
KQU1 140855Z 00010KT 06/M03 A3019 RMK A01 T00561034  RH  052%=      5-min Rain = 0
KQU1 140856Z 36007G15KT 06/M03 A3019 RMK A01 T00561034  RH  052%=      5-min Rain = 0
KQU1 140857Z 01007KT 06/M03 A3019 RMK A01 T00561034  RH  052%=      5-min Rain = 0
KQU1 140858Z 36009G14KT 06/M03 A3019 RMK A01 T00561034  RH  052%=      5-min Rain = 0
KQU1 140859Z 01005KT 06/M03 A3019 RMK A01 T00561034  RH  052%=      5-min Rain = 0
KQU1 140900Z 00008G13KT 06/M03 A3019 RMK A01 T00551034  RH  052%=      5-min Rain = 0
KQU1 140901Z 36008KT 06/M04 A3019 RMK A01 T00551035  RH  052%=      5-min Rain = 0
KQU1 140902Z 35006KT 06/M03 A3019 RMK A01 T00551034  RH  052%=      5-min Rain = 0
KQU1 140903Z 01006G11KT 06/M03 A3019 RMK A01 T00551034  RH  053%=      5-min Rain = 0
KQU1 140904Z 02007KT 06/M03 A3019 RMK A01 T00551033  RH  053%=      5-min Rain = 0
KQU1 140905Z 01007KT 06/M03 A3019 RMK A01 T00551033  RH  053%=      5-min Rain = 0
KQU1 140906Z 02006G11KT 06/M03 A3019 RMK A01 T00551033  RH  053%=      5-min Rain = 0
KQU1 140907Z 00006KT 06/M03 A3019 RMK A01 T00551034  RH  053%=      5-min Rain = 0
KQU1 140908Z 01009KT 05/M03 A3019 RMK A01 T00541034  RH  053%=      5-min Rain = 0
KQU1 140909Z 36011KT 06/M04 A3019 RMK A01 T00551035  RH  053%=      5-min Rain = 0
KQU1 140910Z 00009KT 06/M04 A302 RMK A01 T00551035  RH  052%=      5-min Rain = 0
KQU1 140911Z 35008G13KT 06/M04 A302 RMK A01 T00551035  RH  052%=      5-min Rain = 0
KQU1 140912Z 36008KT 06/M04 A302 RMK A01 T00551035  RH  052%=      5-min Rain = 0
KQU1 140913Z 00007KT 06/M03 A302 RMK A01 T00551034  RH  053%=      5-min Rain = 0
KQU1 140914Z 35011KT 06/M04 A302 RMK A01 T00561035  RH  052%=      5-min Rain = 0
KQU1 140915Z 36009KT 06/M04 A302 RMK A01 T00551035  RH  052%=      5-min Rain = 0
KQU1 140916Z 36008KT 06/M04 A302 RMK A01 T00551035  RH  052%=      5-min Rain = 0
KQU1 140917Z 00008KT 05/M04 A302 RMK A01 T00541035  RH  053%=      5-min Rain = 0
KQU1 140918Z 35008KT 05/M03 A302 RMK A01 T00541034  RH  053%=      5-min Rain = 0
KQU1 140919Z 00008KT 05/M04 A302 RMK A01 T00531035  RH  053%=      5-min Rain = 0
KQU1 140920Z 36007KT 05/M04 A302 RMK A01 T00531035  RH  053%=      5-min Rain = 0
KQU1 140921Z 00007G12KT 05/M04 A302 RMK A01 T00531035  RH  053%=      5-min Rain = 0
KQU1 140922Z 01007KT 05/M03 A302 RMK A01 T00521034  RH  053%=      5-min Rain = 0
KQU1 140923Z 36008KT 05/M03 A302 RMK A01 T00521034  RH  054%=      5-min Rain = 0
KQU1 140924Z 36010KT 05/M04 A302 RMK A01 T00521035  RH  053%=      5-min Rain = 0
KQU1 140925Z 36007KT 05/M03 A302 RMK A01 T00521034  RH  054%=      5-min Rain = 0
KQU1 140926Z 36009KT 05/M03 A302 RMK A01 T00511034  RH  054%=      5-min Rain = 0
KQU1 140927Z 36009KT 05/M03 A302 RMK A01 T00511034  RH  054%=      5-min Rain = 0
KQU1 140928Z 00009KT 05/M03 A302 RMK A01 T00511034  RH  054%=      5-min Rain = 0
KQU1 140929Z 00008KT 05/M03 A302 RMK A01 T00511034  RH  054%=      5-min Rain = 0
KQU1 140930Z 00006KT 05/M03 A302 RMK A01 T00511034  RH  054%=      5-min Rain = 0
KQU1 140931Z 36009KT 05/M03 A302 RMK A01 T00511034  RH  054%=      5-min Rain = 0
KQU1 140932Z 35008KT 05/M03 A302 RMK A01 T00511034  RH  054%=      5-min Rain = 0
KQU1 140933Z 00007KT 05/M03 A302 RMK A01 T00501033  RH  055%=      5-min Rain = 0
KQU1 140934Z 36009KT 05/M03 A302 RMK A01 T00501034  RH  055%=      5-min Rain = 0
KQU1 140935Z 35008KT 05/M03 A302 RMK A01 T00501034  RH  055%=      5-min Rain = 0
KQU1 140936Z 35008KT 05/M03 A302 RMK A01 T00501033  RH  055%=      5-min Rain = 0
KQU1 140937Z 00008KT 05/M03 A302 RMK A01 T00491032  RH  055%=      5-min Rain = 0
KQU1 140938Z 35009KT 05/M03 A302 RMK A01 T00491033  RH  055%=      5-min Rain = 0
KQU1 140939Z 36009KT 05/M03 A3021 RMK A01 T00501033  RH  055%=      5-min Rain = 0
KQU1 140940Z 36009KT 05/M03 A3021 RMK A01 T00491033  RH  055%=      5-min Rain = 0
KQU1 140941Z 36007KT 05/M03 A3021 RMK A01 T00491033  RH  055%=      5-min Rain = 0
KQU1 140942Z 00010KT 05/M03 A3021 RMK A01 T00491032  RH  056%=      5-min Rain = 0
KQU1 140943Z 35011KT 05/M03 A3021 RMK A01 T00491033  RH  055%=      5-min Rain = 0
KQU1 140944Z 01008G13KT 05/M03 A3021 RMK A01 T00491034  RH  055%=      5-min Rain = 0
KQU1 140945Z 00008KT 05/M03 A3021 RMK A01 T00491034  RH  055%=      5-min Rain = 0
KQU1 140946Z 36007G12KT 05/M03 A3021 RMK A01 T00491034  RH  055%=      5-min Rain = 0
KQU1 140947Z 36007KT 05/M03 A3021 RMK A01 T00491034  RH  055%=      5-min Rain = 0
KQU1 140948Z 00007KT 05/M03 A3021 RMK A01 T00491033  RH  055%=      5-min Rain = 0
KQU1 140949Z 01007KT 05/M03 A3021 RMK A01 T00491033  RH  055%=      5-min Rain = 0
KQU1 140950Z 00008KT 05/M03 A3021 RMK A01 T00491033  RH  055%=      5-min Rain = 0
KQU1 140951Z 01008KT 05/M03 A3021 RMK A01 T00491033  RH  055%=      5-min Rain = 0
KQU1 140952Z 01006G11KT 05/M03 A3021 RMK A01 T00491033  RH  055%=      5-min Rain = 0
KQU1 140953Z 00005KT 05/M03 A3021 RMK A01 T00491033  RH  056%=      5-min Rain = 0
KQU1 140954Z 01005KT 05/M03 A3021 RMK A01 T00481032  RH  056%=      5-min Rain = 0
KQU1 140955Z 00006G11KT 05/M03 A3021 RMK A01 T00481033  RH  056%=      5-min Rain = 0
KQU1 140956Z 01007KT 05/M03 A3021 RMK A01 T00481033  RH  056%=      5-min Rain = 0
KQU1 140957Z 36008KT 05/M03 A3021 RMK A01 T00481033  RH  056%=      5-min Rain = 0
KQU1 140958Z 00007KT 05/M03 A3021 RMK A01 T00471034  RH  056%=      5-min Rain = 0
KQU1 140959Z 01007KT 05/M03 A3021 RMK A01 T00471034  RH  055%=      5-min Rain = 0
KQU1 141000Z 00006KT 05/M03 A3021 RMK A01 T00471034  RH  056%=      5-min Rain = 0
KQU1 141001Z 01007KT 05/M03 A3021 RMK A01 T00471034  RH  056%=      5-min Rain = 0
KQU1 141002Z 01006G12KT 05/M03 A3021 RMK A01 T00471034  RH  056%=      5-min Rain = 0
KQU1 141003Z 00005G11KT 05/M03 A3021 RMK A01 T00471034  RH  056%=      5-min Rain = 0
KQU1 141004Z 01006KT 05/M03 A3021 RMK A01 T00461033  RH  056%=      5-min Rain = 0
KQU1 141005Z 01006KT 05/M03 A3021 RMK A01 T00461034  RH  056%=      5-min Rain = 0
KQU1 141006Z 01007KT 05/M03 A3022 RMK A01 T00461034  RH  056%=      5-min Rain = 0
KQU1 141007Z 01006KT 05/M03 A3022 RMK A01 T00451034  RH  056%=      5-min Rain = 0
KQU1 141008Z 01006KT 05/M03 A3022 RMK A01 T00451034  RH  057%=      5-min Rain = 0
KQU1 141009Z 01006KT 05/M03 A3022 RMK A01 T00451034  RH  057%=      5-min Rain = 0
KQU1 141010Z 01007KT 04/M03 A3022 RMK A01 T00441034  RH  057%=      5-min Rain = 0
KQU1 141011Z 01007G12KT 04/M03 A3022 RMK A01 T00441034  RH  057%=      5-min Rain = 0
KQU1 141012Z 36007G12KT 04/M03 A3022 RMK A01 T00441034  RH  057%=      5-min Rain = 0
KQU1 141013Z 36008KT 05/M03 A3022 RMK A01 T00451033  RH  057%=      5-min Rain = 0
KQU1 141014Z 36007KT 05/M03 A3022 RMK A01 T00451033  RH  057%=      5-min Rain = 0
KQU1 141015Z 36007KT 05/M03 A3022 RMK A01 T00451032  RH  057%=      5-min Rain = 0
KQU1 141016Z 00008G13KT 05/M03 A3022 RMK A01 T00451033  RH  057%=      5-min Rain = 0
KQU1 141017Z 00008KT 05/M03 A3022 RMK A01 T00461032  RH  057%=      5-min Rain = 0
KQU1 141018Z 00006G11KT 05/M03 A3022 RMK A01 T00461032  RH  057%=      5-min Rain = 0
KQU1 141019Z 01007KT 05/M03 A3022 RMK A01 T00461031  RH  057%=      5-min Rain = 0
KQU1 141020Z 01008KT 05/M03 A3022 RMK A01 T00461032  RH  057%=      5-min Rain = 0
KQU1 141021Z 00008G14KT 05/M03 A3022 RMK A01 T00461032  RH  057%=      5-min Rain = 0
KQU1 141022Z 00007KT 05/M03 A3022 RMK A01 T00471032  RH  057%=      5-min Rain = 0
KQU1 141023Z 00006KT 05/M03 A3022 RMK A01 T00461031  RH  057%=      5-min Rain = 0
KQU1 141024Z 36008KT 05/M03 A3022 RMK A01 T00461031  RH  057%=      5-min Rain = 0
KQU1 141025Z 00009KT 05/M03 A3022 RMK A01 T00461030  RH  057%=      5-min Rain = 0
KQU1 141026Z 00007G12KT 05/M03 A3022 RMK A01 T00471030  RH  057%=      5-min Rain = 0
KQU1 141027Z 02004KT 05/M03 A3022 RMK A01 T00471030  RH  057%=      5-min Rain = 0
KQU1 141028Z 02006KT 05/M03 A3022 RMK A01 T00471028  RH  058%=      5-min Rain = 0
KQU1 141029Z 01008G13KT 05/M03 A3022 RMK A01 T00471029  RH  058%=      5-min Rain = 0
KQU1 141030Z 01010G15KT 05/M03 A3022 RMK A01 T00481029  RH  058%=      5-min Rain = 0
KQU1 141031Z 02009KT 05/M03 A3022 RMK A01 T00481028  RH  058%=      5-min Rain = 0
KQU1 141032Z 00005KT 05/M03 A3022 RMK A01 T00491028  RH  058%=      5-min Rain = 0
KQU1 141033Z 00009G15KT 05/M03 A3022 RMK A01 T00491027  RH  058%=      5-min Rain = 0
KQU1 141034Z 01008KT 05/M03 A3022 RMK A01 T00481028  RH  058%=      5-min Rain = 0
KQU1 141035Z 02010G15KT 05/M03 A3022 RMK A01 T00481028  RH  058%=      5-min Rain = 0
KQU1 141036Z 36008G13KT 05/M03 A3022 RMK A01 T00491026  RH  058%=      5-min Rain = 0
KQU1 141037Z 01009KT 05/M03 A3022 RMK A01 T00491025  RH  059%=      5-min Rain = 0
KQU1 141038Z 01010G18KT 05/M03 A3022 RMK A01 T00491025  RH  059%=      5-min Rain = 0
KQU1 141039Z 01009G14KT 05/M03 A3022 RMK A01 T00501025  RH  059%=      5-min Rain = 0
KQU1 141040Z 02009KT 05/M02 A3022 RMK A01 T00501024  RH  059%=      5-min Rain = 0
KQU1 141041Z 00010KT 05/M02 A3022 RMK A01 T00501024  RH  059%=      5-min Rain = 0
KQU1 141042Z 00009G15KT 05/M02 A3022 RMK A01 T00501024  RH  059%=      5-min Rain = 0
KQU1 141043Z 01010G15KT 05/M02 A3022 RMK A01 T00511023  RH  059%=      5-min Rain = 0
KQU1 141044Z 01011G16KT 05/M02 A3022 RMK A01 T00511022  RH  059%=      5-min Rain = 0
KQU1 141045Z 02010G16KT 05/M02 A3023 RMK A01 T00521023  RH  059%=      5-min Rain = 0
KQU1 141046Z 02010G15KT 05/M02 A3023 RMK A01 T00521022  RH  059%=      5-min Rain = 0
KQU1 141047Z 36007KT 05/M02 A3023 RMK A01 T00521022  RH  059%=      5-min Rain = 0
KQU1 141048Z 01007KT 05/M02 A3023 RMK A01 T00511022  RH  059%=      5-min Rain = 0
KQU1 141049Z 02010KT 05/M02 A3023 RMK A01 T00511022  RH  059%=      5-min Rain = 0
KQU1 141050Z 02011G17KT 05/M02 A3023 RMK A01 T00511022  RH  059%=      5-min Rain = 0
KQU1 141051Z 01010G17KT 05/M02 A3023 RMK A01 T00511023  RH  059%=      5-min Rain = 0
KQU1 141052Z 35010KT 05/M02 A3023 RMK A01 T00511023  RH  059%=      5-min Rain = 0
KQU1 141053Z 02009G15KT 05/M02 A3023 RMK A01 T00511022  RH  059%=      5-min Rain = 0
KQU1 141054Z 01008G16KT 05/M02 A3023 RMK A01 T00511022  RH  059%=      5-min Rain = 0
KQU1 141055Z 36006G11KT 05/M02 A3023 RMK A01 T00511022  RH  059%=      5-min Rain = 0
KQU1 141056Z 00008G13KT 05/M02 A3023 RMK A01 T00511023  RH  059%=      5-min Rain = 0
KQU1 141057Z 01008G13KT 05/M02 A3023 RMK A01 T00511023  RH  059%=      5-min Rain = 0
KQU1 141058Z 02009G14KT 05/M02 A3023 RMK A01 T00511024  RH  059%=      5-min Rain = 0
KQU1 141059Z 02010KT 05/M02 A3023 RMK A01 T00501024  RH  059%=      5-min Rain = 0
KQU1 141100Z 01009G14KT 05/M02 A3023 RMK A01 T00501023  RH  059%=      5-min Rain = 0
KQU1 141101Z 02007G13KT 05/M02 A3023 RMK A01 T00491023  RH  059%=      5-min Rain = 0
KQU1 141102Z 01010KT 05/M02 A3023 RMK A01 T00491024  RH  059%=      5-min Rain = 0
KQU1 141103Z 00006G11KT 05/M02 A3023 RMK A01 T00481023  RH  060%=      5-min Rain = 0
KQU1 141104Z 35010KT 05/M02 A3023 RMK A01 T00481023  RH  060%=      5-min Rain = 0
KQU1 141105Z 02010G15KT 05/M02 A3023 RMK A01 T00481023  RH  060%=      5-min Rain = 0
KQU1 141106Z 00008G14KT 05/M02 A3023 RMK A01 T00481023  RH  060%=      5-min Rain = 0
KQU1 141107Z 01008KT 05/M02 A3023 RMK A01 T00481023  RH  060%=      5-min Rain = 0
KQU1 141108Z 01006G11KT 05/M02 A3023 RMK A01 T00481023  RH  060%=      5-min Rain = 0
KQU1 141109Z 35008G13KT 05/M02 A3023 RMK A01 T00471023  RH  060%=      5-min Rain = 0
KQU1 141110Z 01005G10KT 05/M02 A3023 RMK A01 T00471023  RH  061%=      5-min Rain = 0
KQU1 141111Z 01008KT 05/M02 A3024 RMK A01 T00471022  RH  061%=      5-min Rain = 0
KQU1 141112Z 01005KT 05/M02 A3024 RMK A01 T00471022  RH  061%=      5-min Rain = 0
KQU1 141113Z 02007KT 05/M02 A3024 RMK A01 T00461022  RH  061%=      5-min Rain = 0
KQU1 141114Z 02006KT 05/M02 A3024 RMK A01 T00461023  RH  061%=      5-min Rain = 0
KQU1 141115Z 02008KT 05/M02 A3024 RMK A01 T00451023  RH  061%=      5-min Rain = 0
KQU1 141116Z 02007KT 05/M02 A3024 RMK A01 T00451023  RH  061%=      5-min Rain = 0
KQU1 141117Z 02007KT 05/M02 A3024 RMK A01 T00451023  RH  061%=      5-min Rain = 0
KQU1 141118Z 02006KT 04/M02 A3024 RMK A01 T00441023  RH  062%=      5-min Rain = 0
KQU1 141119Z 02006KT 04/M02 A3024 RMK A01 T00441022  RH  062%=      5-min Rain = 0
KQU1 141120Z 01006KT 04/M02 A3024 RMK A01 T00441022  RH  062%=      5-min Rain = 0
KQU1 141121Z 01005KT 04/M02 A3024 RMK A01 T00441022  RH  062%=      5-min Rain = 0
KQU1 141122Z 00004KT 04/M02 A3024 RMK A01 T00431022  RH  062%=      5-min Rain = 0
KQU1 141123Z 01007KT 04/M02 A3024 RMK A01 T00431022  RH  063%=      5-min Rain = 0
KQU1 141124Z 02004KT 04/M02 A3025 RMK A01 T00431022  RH  063%=      5-min Rain = 0
KQU1 141125Z 01005KT 04/M02 A3025 RMK A01 T00421022  RH  063%=      5-min Rain = 0
KQU1 141126Z 01005KT 04/M02 A3025 RMK A01 T00421022  RH  063%=      5-min Rain = 0
KQU1 141127Z 02005KT 04/M02 A3025 RMK A01 T00421022  RH  063%=      5-min Rain = 0
KQU1 141128Z 01005KT 04/M02 A3025 RMK A01 T00421022  RH  063%=      5-min Rain = 0
KQU1 141129Z 01004KT 04/M02 A3025 RMK A01 T00421022  RH  063%=      5-min Rain = 0
KQU1 141130Z 01005KT 04/M02 A3025 RMK A01 T00411022  RH  064%=      5-min Rain = 0
KQU1 141131Z 02006KT 04/M02 A3025 RMK A01 T00411021  RH  064%=      5-min Rain = 0
KQU1 141132Z 01005KT 04/M02 A3025 RMK A01 T00411021  RH  064%=      5-min Rain = 0
KQU1 141133Z 02007KT 04/M02 A3025 RMK A01 T00411021  RH  064%=      5-min Rain = 0
KQU1 141134Z 01006KT 04/M02 A3025 RMK A01 T00411021  RH  064%=      5-min Rain = 0
KQU1 141135Z 02005KT 04/M02 A3025 RMK A01 T00411021  RH  064%=      5-min Rain = 0
KQU1 141136Z 01005KT 04/M02 A3025 RMK A01 T00411020  RH  064%=      5-min Rain = 0
KQU1 141137Z 02006KT 04/M02 A3025 RMK A01 T00411021  RH  064%=      5-min Rain = 0
KQU1 141138Z 01005KT 04/M02 A3025 RMK A01 T00401020  RH  065%=      5-min Rain = 0
KQU1 141139Z 01005KT 04/M02 A3025 RMK A01 T00401020  RH  065%=      5-min Rain = 0
KQU1 141140Z 01005KT 04/M02 A3025 RMK A01 T00401019  RH  065%=      5-min Rain = 0
KQU1 141141Z 02006KT 04/M02 A3025 RMK A01 T00401019  RH  065%=      5-min Rain = 0
KQU1 141142Z 02006KT 04/M02 A3025 RMK A01 T00401020  RH  065%=      5-min Rain = 0
KQU1 141143Z 01006KT 04/M02 A3025 RMK A01 T00401020  RH  065%=      5-min Rain = 0
KQU1 141144Z 02007KT 04/M02 A3025 RMK A01 T00401020  RH  065%=      5-min Rain = 0
KQU1 141145Z 01005KT 04/M02 A3025 RMK A01 T00411019  RH  065%=      5-min Rain = 0
KQU1 141146Z 01005KT 04/M02 A3025 RMK A01 T00411018  RH  065%=      5-min Rain = 0
KQU1 141147Z 02007KT 04/M02 A3025 RMK A01 T00411018  RH  065%=      5-min Rain = 0
KQU1 141148Z 01004KT 04/M02 A3025 RMK A01 T00411018  RH  065%=      5-min Rain = 0
KQU1 141149Z 01005KT 04/M02 A3025 RMK A01 T00411018  RH  066%=      5-min Rain = 0
KQU1 141150Z 00007KT 04/M02 A3025 RMK A01 T00411018  RH  066%=      5-min Rain = 0
KQU1 141151Z 00004KT 04/M02 A3025 RMK A01 T00411018  RH  066%=      5-min Rain = 0
KQU1 141152Z 01006KT 04/M02 A3025 RMK A01 T00401018  RH  066%=      5-min Rain = 0
KQU1 141153Z 01005KT 04/M02 A3025 RMK A01 T00401018  RH  066%=      5-min Rain = 0
KQU1 141154Z 01004KT 04/M02 A3026 RMK A01 T00401018  RH  066%=      5-min Rain = 0
KQU1 141155Z 01006KT 04/M02 A3026 RMK A01 T00401018  RH  066%=      5-min Rain = 0
KQU1 141156Z 01006KT 04/M02 A3026 RMK A01 T00401018  RH  066%=      5-min Rain = 0
KQU1 141157Z 00006KT 04/M02 A3026 RMK A01 T00391018  RH  066%=      5-min Rain = 0
KQU1 141158Z 36006KT 04/M02 A3026 RMK A01 T00391018  RH  066%=      5-min Rain = 0
KQU1 141159Z 02004KT 04/M02 A3026 RMK A01 T00391017  RH  067%=      5-min Rain = 0
KQU1 141200Z 01004KT 04/M02 A3026 RMK A01 T00391017  RH  067%=      5-min Rain = 0
KQU1 141201Z 01006KT 04/M02 A3026 RMK A01 T00391017  RH  067%=      5-min Rain = 0
KQU1 141202Z 01004KT 04/M02 A3026 RMK A01 T00391017  RH  067%=      5-min Rain = 0
KQU1 141203Z 01004KT 04/M02 A3026 RMK A01 T00391018  RH  067%=      5-min Rain = 0
KQU1 141204Z 01007KT 04/M02 A3026 RMK A01 T00391017  RH  067%=      5-min Rain = 0
KQU1 141205Z 02007KT 04/M02 A3026 RMK A01 T00391017  RH  067%=      5-min Rain = 0
KQU1 141206Z 02008KT 04/M02 A3026 RMK A01 T00381017  RH  067%=      5-min Rain = 0
KQU1 141207Z 01005KT 04/M02 A3027 RMK A01 T00391017  RH  067%=      5-min Rain = 0
KQU1 141208Z 01007KT 04/M02 A3027 RMK A01 T00391017  RH  067%=      5-min Rain = 0
KQU1 141209Z 01007KT 04/M02 A3027 RMK A01 T00391017  RH  067%=      5-min Rain = 0
KQU1 141210Z 01006KT 04/M02 A3027 RMK A01 T00391016  RH  067%=      5-min Rain = 0
KQU1 141211Z 02006KT 04/M02 A3027 RMK A01 T00391016  RH  067%=      5-min Rain = 0
KQU1 141212Z 02007KT 04/M02 A3027 RMK A01 T00391016  RH  067%=      5-min Rain = 0
KQU1 141213Z 00006G12KT 04/M02 A3027 RMK A01 T00391016  RH  067%=      5-min Rain = 0
KQU1 141214Z 01005KT 04/M02 A3027 RMK A01 T00391016  RH  067%=      5-min Rain = 0
KQU1 141215Z 36009KT 04/M02 A3027 RMK A01 T00381017  RH  067%=      5-min Rain = 0
KQU1 141216Z 00008KT 04/M02 A3027 RMK A01 T00381017  RH  067%=      5-min Rain = 0
KQU1 141217Z 36006G12KT 04/M02 A3027 RMK A01 T00391017  RH  067%=      5-min Rain = 0
KQU1 141218Z 00009KT 04/M02 A3027 RMK A01 T00391017  RH  067%=      5-min Rain = 0
KQU1 141219Z 01007KT 04/M02 A3028 RMK A01 T00391016  RH  067%=      5-min Rain = 0
KQU1 141220Z 01005KT 04/M02 A3028 RMK A01 T00391016  RH  067%=      5-min Rain = 0
KQU1 141221Z 00005KT 04/M02 A3028 RMK A01 T00391016  RH  067%=      5-min Rain = 0
KQU1 141222Z 00009KT 04/M02 A3027 RMK A01 T00391016  RH  067%=      5-min Rain = 0
KQU1 141223Z 00010KT 04/M02 A3028 RMK A01 T00391017  RH  067%=      5-min Rain = 0
KQU1 141224Z 00008KT 04/M02 A3028 RMK A01 T00391017  RH  067%=      5-min Rain = 0
KQU1 141225Z 01011KT 04/M02 A3028 RMK A01 T00391017  RH  067%=      5-min Rain = 0
KQU1 141226Z 00011KT 04/M02 A3028 RMK A01 T00391017  RH  067%=      5-min Rain = 0
KQU1 141227Z 01005G10KT 04/M02 A3028 RMK A01 T00391017  RH  067%=      5-min Rain = 0
KQU1 141228Z 01007G12KT 04/M02 A3028 RMK A01 T00391017  RH  067%=      5-min Rain = 0
KQU1 141229Z 00007KT 04/M02 A3028 RMK A01 T00391018  RH  067%=      5-min Rain = 0
KQU1 141230Z 01007G12KT 04/M02 A3028 RMK A01 T00381018  RH  067%=      5-min Rain = 0
KQU1 141231Z 01006KT 04/M02 A3028 RMK A01 T00381018  RH  067%=      5-min Rain = 0
KQU1 141232Z 35007G12KT 04/M02 A3028 RMK A01 T00381019  RH  066%=      5-min Rain = 0
KQU1 141233Z 36008KT 04/M02 A3028 RMK A01 T00381018  RH  067%=      5-min Rain = 0
KQU1 141234Z 00006G13KT 04/M02 A3028 RMK A01 T00381019  RH  066%=      5-min Rain = 0
KQU1 141235Z 01008KT 04/M02 A3028 RMK A01 T00381019  RH  066%=      5-min Rain = 0
KQU1 141236Z 00008G13KT 04/M02 A3028 RMK A01 T00371019  RH  066%=      5-min Rain = 0
KQU1 141237Z 36006G12KT 04/M02 A3028 RMK A01 T00371019  RH  066%=      5-min Rain = 0
KQU1 141238Z 01007KT 04/M02 A3029 RMK A01 T00371019  RH  067%=      5-min Rain = 0
KQU1 141239Z 01008KT 04/M02 A3029 RMK A01 T00371019  RH  067%=      5-min Rain = 0
KQU1 141240Z 36007KT 04/M02 A3029 RMK A01 T00371020  RH  066%=      5-min Rain = 0
KQU1 141241Z 36009KT 04/M02 A3029 RMK A01 T00371020  RH  066%=      5-min Rain = 0
KQU1 141242Z 36008KT 04/M02 A3029 RMK A01 T00371020  RH  066%=      5-min Rain = 0
KQU1 141243Z 35008KT 04/M02 A3029 RMK A01 T00361020  RH  066%=      5-min Rain = 0
KQU1 141244Z 36008KT 04/M02 A3029 RMK A01 T00361020  RH  067%=      5-min Rain = 0
KQU1 141245Z 36008KT 04/M02 A3029 RMK A01 T00361020  RH  067%=      5-min Rain = 0
KQU1 141246Z 01010KT 04/M02 A3029 RMK A01 T00361021  RH  066%=      5-min Rain = 0
KQU1 141247Z 01010KT 04/M02 A3029 RMK A01 T00361021  RH  066%=      5-min Rain = 0
KQU1 141248Z 00006KT 04/M02 A303 RMK A01 T00361020  RH  067%=      5-min Rain = 0
KQU1 141249Z 00007KT 04/M02 A303 RMK A01 T00351020  RH  067%=      5-min Rain = 0
KQU1 141250Z 00007G13KT 04/M02 A303 RMK A01 T00351020  RH  067%=      5-min Rain = 0
KQU1 141251Z 01007KT 04/M02 A303 RMK A01 T00351020  RH  067%=      5-min Rain = 0
KQU1 141252Z 35009KT 04/M02 A303 RMK A01 T00351020  RH  067%=      5-min Rain = 0
KQU1 141253Z 36010KT 04/M02 A303 RMK A01 T00351020  RH  067%=      5-min Rain = 0
KQU1 141254Z 00010KT 04/M02 A303 RMK A01 T00351020  RH  067%=      5-min Rain = 0
KQU1 141255Z 36010KT 04/M02 A303 RMK A01 T00351020  RH  067%=      5-min Rain = 0
KQU1 141256Z 36010KT 03/M02 A303 RMK A01 T00341020  RH  068%=      5-min Rain = 0
KQU1 141257Z 00011KT 03/M02 A303 RMK A01 T00341020  RH  068%=      5-min Rain = 0
KQU1 141258Z 35010KT 03/M02 A303 RMK A01 T00341020  RH  068%=      5-min Rain = 0
KQU1 141259Z 00008KT 03/M02 A303 RMK A01 T00341019  RH  068%=      5-min Rain = 0
KQU1 141300Z 36008KT 03/M02 A303 RMK A01 T00341020  RH  068%=      5-min Rain = 0
KQU1 141301Z 01006KT 03/M02 A303 RMK A01 T00341020  RH  068%=      5-min Rain = 0
KQU1 141302Z 00008KT 03/M02 A303 RMK A01 T00341019  RH  068%=      5-min Rain = 0
KQU1 141303Z 01006KT 03/M02 A3031 RMK A01 T00331020  RH  068%=      5-min Rain = 0
KQU1 141304Z 01006KT 03/M02 A3031 RMK A01 T00331020  RH  068%=      5-min Rain = 0
KQU1 141305Z 36007KT 03/M02 A3031 RMK A01 T00331020  RH  068%=      5-min Rain = 0
KQU1 141306Z 00007KT 03/M02 A3031 RMK A01 T00331020  RH  068%=      5-min Rain = 0
KQU1 141307Z 01009KT 03/M02 A3031 RMK A01 T00331019  RH  069%=      5-min Rain = 0
KQU1 141308Z 00007KT 03/M02 A3031 RMK A01 T00331020  RH  068%=      5-min Rain = 0
KQU1 141309Z 36010KT 03/M02 A3031 RMK A01 T00331019  RH  069%=      5-min Rain = 0
KQU1 141310Z 35009KT 03/M02 A3031 RMK A01 T00331019  RH  069%=      5-min Rain = 0
KQU1 141311Z 36009KT 03/M02 A3031 RMK A01 T00331019  RH  069%=      5-min Rain = 0
KQU1 141312Z 35008KT 03/M02 A3031 RMK A01 T00331019  RH  069%=      5-min Rain = 0
KQU1 141313Z 35007KT 03/M02 A3031 RMK A01 T00321019  RH  069%=      5-min Rain = 0
KQU1 141314Z 01008KT 03/M02 A3031 RMK A01 T00321019  RH  069%=      5-min Rain = 0
KQU1 141315Z 01006KT 03/M02 A3031 RMK A01 T00321019  RH  069%=      5-min Rain = 0
KQU1 141316Z 00007KT 03/M02 A3031 RMK A01 T00321019  RH  069%=      5-min Rain = 0
KQU1 141317Z 01004KT 03/M02 A3031 RMK A01 T00321019  RH  069%=      5-min Rain = 0
KQU1 141318Z 00006KT 03/M02 A3032 RMK A01 T00321018  RH  070%=      5-min Rain = 0
KQU1 141319Z 36007KT 03/M02 A3032 RMK A01 T00321019  RH  070%=      5-min Rain = 0
KQU1 141320Z 00007KT 03/M02 A3032 RMK A01 T00311019  RH  070%=      5-min Rain = 0
KQU1 141321Z 36006KT 03/M02 A3032 RMK A01 T00321018  RH  070%=      5-min Rain = 0
KQU1 141322Z 36007KT 03/M02 A3032 RMK A01 T00321018  RH  070%=      5-min Rain = 0
KQU1 141323Z 36006KT 03/M02 A3032 RMK A01 T00311018  RH  070%=      5-min Rain = 0
KQU1 141324Z 35007KT 03/M02 A3032 RMK A01 T00311018  RH  070%=      5-min Rain = 0
KQU1 141325Z 36007KT 03/M02 A3032 RMK A01 T00311018  RH  070%=      5-min Rain = 0
KQU1 141326Z 00006KT 03/M02 A3032 RMK A01 T00311018  RH  070%=      5-min Rain = 0
KQU1 141327Z 01005KT 03/M02 A3032 RMK A01 T00311018  RH  070%=      5-min Rain = 0
KQU1 141328Z 01006KT 03/M02 A3032 RMK A01 T00311018  RH  070%=      5-min Rain = 0
KQU1 141329Z 36005KT 03/M02 A3032 RMK A01 T00311017  RH  070%=      5-min Rain = 0
KQU1 141330Z 36007KT 03/M02 A3033 RMK A01 T00321017  RH  070%=      5-min Rain = 0
KQU1 141331Z 35008KT 03/M02 A3033 RMK A01 T00321017  RH  070%=      5-min Rain = 0
KQU1 141332Z 00005KT 03/M02 A3033 RMK A01 T00321017  RH  070%=      5-min Rain = 0
KQU1 141333Z 36006KT 03/M02 A3033 RMK A01 T00321017  RH  070%=      5-min Rain = 0
KQU1 141334Z 00005KT 03/M02 A3033 RMK A01 T00331017  RH  070%=      5-min Rain = 0
KQU1 141335Z 36004KT 03/M02 A3033 RMK A01 T00331016  RH  070%=      5-min Rain = 0
KQU1 141336Z 36007KT 03/M02 A3033 RMK A01 T00331017  RH  070%=      5-min Rain = 0
KQU1 141337Z 36007KT 03/M02 A3033 RMK A01 T00331016  RH  070%=      5-min Rain = 0
KQU1 141338Z 36006KT 03/M02 A3033 RMK A01 T00331016  RH  070%=      5-min Rain = 0
KQU1 141339Z 36006KT 03/M02 A3033 RMK A01 T00331017  RH  070%=      5-min Rain = 0
KQU1 141340Z 00006KT 03/M02 A3033 RMK A01 T00331016  RH  070%=      5-min Rain = 0
KQU1 141341Z 35007KT 03/M02 A3033 RMK A01 T00341016  RH  070%=      5-min Rain = 0
KQU1 141342Z 36005KT 03/M02 A3033 RMK A01 T00341016  RH  070%=      5-min Rain = 0
KQU1 141343Z 00006KT 03/M02 A3033 RMK A01 T00341016  RH  070%=      5-min Rain = 0
KQU1 141344Z 36005KT 03/M02 A3033 RMK A01 T00341016  RH  070%=      5-min Rain = 0
KQU1 141345Z 36007KT 04/M02 A3033 RMK A01 T00351015  RH  070%=      5-min Rain = 0
KQU1 141346Z 00006KT 04/M02 A3033 RMK A01 T00351016  RH  070%=      5-min Rain = 0
KQU1 141347Z 36004G9KT 04/M02 A3034 RMK A01 T00351016  RH  070%=      5-min Rain = 0
KQU1 141348Z 00005KT 04/M02 A3034 RMK A01 T00351016  RH  070%=      5-min Rain = 0
KQU1 141349Z 36007KT 04/M02 A3034 RMK A01 T00351016  RH  069%=      5-min Rain = 0
KQU1 141350Z 36005KT 04/M02 A3034 RMK A01 T00351016  RH  069%=      5-min Rain = 0
KQU1 141351Z 36005KT 04/M02 A3034 RMK A01 T00351015  RH  069%=      5-min Rain = 0
KQU1 141352Z 00007KT 04/M02 A3034 RMK A01 T00351016  RH  069%=      5-min Rain = 0
KQU1 141353Z 01006KT 04/M02 A3034 RMK A01 T00351015  RH  069%=      5-min Rain = 0
KQU1 141354Z 01006KT 04/M02 A3034 RMK A01 T00361015  RH  069%=      5-min Rain = 0
KQU1 141355Z 36005KT 04/M02 A3034 RMK A01 T00361015  RH  069%=      5-min Rain = 0
KQU1 141356Z 00004KT 04/M02 A3034 RMK A01 T00361015  RH  069%=      5-min Rain = 0
KQU1 141357Z 01005KT 04/M01 A3034 RMK A01 T00371014  RH  069%=      5-min Rain = 0
KQU1 141358Z 36004KT 04/M01 A3034 RMK A01 T00371014  RH  069%=      5-min Rain = 0
KQU1 141359Z 00005KT 04/M01 A3035 RMK A01 T00381014  RH  069%=      5-min Rain = 0
KQU1 141400Z 36005KT 04/M01 A3035 RMK A01 T00381014  RH  069%=      5-min Rain = 0
KQU1 141401Z 00005KT 04/M01 A3035 RMK A01 T00381014  RH  069%=      5-min Rain = 0
KQU1 141402Z 36004KT 04/M01 A3035 RMK A01 T00381014  RH  069%=      5-min Rain = 0
KQU1 141403Z 00004KT 04/M01 A3035 RMK A01 T00391014  RH  069%=      5-min Rain = 0
KQU1 141404Z 01003KT 04/M01 A3035 RMK A01 T00391013  RH  069%=      5-min Rain = 0
KQU1 141405Z 01004KT 04/M01 A3035 RMK A01 T00391013  RH  069%=      5-min Rain = 0
KQU1 141406Z 00004KT 04/M01 A3035 RMK A01 T00401013  RH  068%=      5-min Rain = 0
KQU1 141407Z 00004KT 04/M01 A3035 RMK A01 T00401012  RH  068%=      5-min Rain = 0
KQU1 141408Z 01004KT 04/M01 A3035 RMK A01 T00411012  RH  068%=      5-min Rain = 0
KQU1 141409Z 01002KT 04/M01 A3035 RMK A01 T00421012  RH  068%=      5-min Rain = 0
KQU1 141410Z 01004KT 04/M01 A3035 RMK A01 T00421011  RH  068%=      5-min Rain = 0
KQU1 141411Z 01006KT 04/M01 A3035 RMK A01 T00421012  RH  068%=      5-min Rain = 0
KQU1 141412Z 00004KT 04/M01 A3035 RMK A01 T00431011  RH  068%=      5-min Rain = 0
KQU1 141413Z 02003KT 04/M01 A3035 RMK A01 T00431010  RH  068%=      5-min Rain = 0
KQU1 141414Z 02003KT 04/M01 A3035 RMK A01 T00441010  RH  068%=      5-min Rain = 0
KQU1 141415Z 36004KT 05/M01 A3035 RMK A01 T00451009  RH  068%=      5-min Rain = 0
KQU1 141416Z 00004KT 05/M01 A3035 RMK A01 T00451009  RH  068%=      5-min Rain = 0
KQU1 141417Z 00004KT 05/M01 A3035 RMK A01 T00461009  RH  068%=      5-min Rain = 0
KQU1 141418Z 01005KT 05/M01 A3035 RMK A01 T00461010  RH  067%=      5-min Rain = 0
KQU1 141419Z 01004KT 05/M01 A3036 RMK A01 T00461009  RH  067%=      5-min Rain = 0
KQU1 141420Z 01003KT 05/M01 A3036 RMK A01 T00471009  RH  067%=      5-min Rain = 0
KQU1 141421Z 00005KT 05/M01 A3036 RMK A01 T00481009  RH  067%=      5-min Rain = 0
KQU1 141422Z 36004KT 05/M01 A3036 RMK A01 T00481009  RH  067%=      5-min Rain = 0
KQU1 141423Z 01004KT 05/M01 A3036 RMK A01 T00481008  RH  067%=      5-min Rain = 0
KQU1 141424Z 02004KT 05/M01 A3036 RMK A01 T00491008  RH  067%=      5-min Rain = 0
KQU1 141425Z 02005KT 05/M01 A3036 RMK A01 T00491008  RH  066%=      5-min Rain = 0
KQU1 141426Z 01006KT 05/M01 A3036 RMK A01 T00491008  RH  066%=      5-min Rain = 0
KQU1 141427Z 01004KT 05/M01 A3036 RMK A01 T00491007  RH  067%=      5-min Rain = 0
KQU1 141428Z 01004KT 05/M01 A3036 RMK A01 T00501007  RH  066%=      5-min Rain = 0
KQU1 141429Z 02006KT 05/M01 A3036 RMK A01 T00501007  RH  066%=      5-min Rain = 0
KQU1 141430Z 02006KT 05/M01 A3036 RMK A01 T00501008  RH  066%=      5-min Rain = 0
KQU1 141431Z 02005KT 05/M01 A3036 RMK A01 T00501008  RH  066%=      5-min Rain = 0
KQU1 141432Z 35006KT 05/M01 A3036 RMK A01 T00501009  RH  065%=      5-min Rain = 0
KQU1 141433Z 36004KT 05/M01 A3037 RMK A01 T00501008  RH  066%=      5-min Rain = 0
KQU1 141434Z 02005KT 05/M01 A3037 RMK A01 T00511007  RH  066%=      5-min Rain = 0
KQU1 141435Z 01007KT 05/M01 A3037 RMK A01 T00521007  RH  066%=      5-min Rain = 0
KQU1 141436Z 01008KT 05/M01 A3037 RMK A01 T00521008  RH  065%=      5-min Rain = 0
KQU1 141437Z 01006KT 05/M01 A3037 RMK A01 T00521009  RH  065%=      5-min Rain = 0
KQU1 141438Z 01006KT 05/M01 A3037 RMK A01 T00521007  RH  066%=      5-min Rain = 0
KQU1 141439Z 01006G11KT 05/M01 A3037 RMK A01 T00521007  RH  065%=      5-min Rain = 0
KQU1 141440Z 00006G11KT 05/M01 A3037 RMK A01 T00521008  RH  065%=      5-min Rain = 0
KQU1 141441Z 36005KT 05/M01 A3037 RMK A01 T00531006  RH  066%=      5-min Rain = 0
KQU1 141442Z 35007KT 05/M01 A3037 RMK A01 T00541006  RH  065%=      5-min Rain = 0
KQU1 141443Z 01008KT 05/M01 A3037 RMK A01 T00541007  RH  065%=      5-min Rain = 0
KQU1 141444Z 02005KT 05/M01 A3037 RMK A01 T00541007  RH  065%=      5-min Rain = 0
KQU1 141445Z 02007KT 06/M01 A3037 RMK A01 T00551006  RH  065%=      5-min Rain = 0
KQU1 141446Z 00006KT 06/M01 A3038 RMK A01 T00551007  RH  064%=      5-min Rain = 0
KQU1 141447Z 02007KT 06/M01 A3038 RMK A01 T00551007  RH  065%=      5-min Rain = 0
KQU1 141448Z 01006KT 06/M01 A3038 RMK A01 T00551007  RH  064%=      5-min Rain = 0
KQU1 141449Z 02008KT 06/M01 A3038 RMK A01 T00551007  RH  065%=      5-min Rain = 0
KQU1 141450Z 03007KT 06/M01 A3038 RMK A01 T00551006  RH  065%=      5-min Rain = 0
KQU1 141451Z 02007KT 06/M01 A3038 RMK A01 T00551006  RH  065%=      5-min Rain = 0
KQU1 141452Z 01008KT 06/M01 A3038 RMK A01 T00551007  RH  064%=      5-min Rain = 0
KQU1 141453Z 01006KT 06/M01 A3038 RMK A01 T00551005  RH  065%=      5-min Rain = 0
KQU1 141454Z 01003KT 06/M00 A3038 RMK A01 T00571004  RH  065%=      5-min Rain = 0
KQU1 141455Z 02010KT 06/M01 A3038 RMK A01 T00571006  RH  064%=      5-min Rain = 0
KQU1 141456Z 02008KT 06/M01 A3038 RMK A01 T00571006  RH  064%=      5-min Rain = 0
KQU1 141457Z 02007KT 06/M01 A3038 RMK A01 T00571005  RH  064%=      5-min Rain = 0
KQU1 141458Z 02008KT 06/M01 A3038 RMK A01 T00571005  RH  064%=      5-min Rain = 0
KQU1 141459Z 03006KT 06/M00 A3038 RMK A01 T00571004  RH  065%=      5-min Rain = 0
KQU1 141500Z 03009KT 06/M00 A3038 RMK A01 T00581004  RH  065%=      5-min Rain = 0
KQU1 141501Z 03005KT 06/M00 A3038 RMK A01 T00581004  RH  064%=      5-min Rain = 0
KQU1 141502Z 35007G12KT 06/M01 A3038 RMK A01 T00591005  RH  064%=      5-min Rain = 0
KQU1 141503Z 01005KT 06/M01 A3038 RMK A01 T00581005  RH  064%=      5-min Rain = 0
KQU1 141504Z 02010KT 06/M01 A3038 RMK A01 T00591006  RH  063%=      5-min Rain = 0
KQU1 141505Z 03010KT 06/M01 A3038 RMK A01 T00581006  RH  064%=      5-min Rain = 0
KQU1 141506Z 03009KT 06/M01 A3038 RMK A01 T00581006  RH  064%=      5-min Rain = 0
KQU1 141507Z 02008KT 06/M01 A3038 RMK A01 T00581005  RH  064%=      5-min Rain = 0
KQU1 141508Z 01004KT 06/M00 A3038 RMK A01 T00591004  RH  064%=      5-min Rain = 0
KQU1 141509Z 02009G14KT 06/M01 A3038 RMK A01 T00591005  RH  063%=      5-min Rain = 0
KQU1 141510Z 02009KT 06/M01 A3039 RMK A01 T00591005  RH  063%=      5-min Rain = 0
KQU1 141511Z 03009KT 06/M01 A3039 RMK A01 T00591006  RH  063%=      5-min Rain = 0
KQU1 141512Z 03006KT 06/M01 A3039 RMK A01 T00591005  RH  063%=      5-min Rain = 0
KQU1 141513Z 02007G13KT 06/M00 A3039 RMK A01 T00601004  RH  064%=      5-min Rain = 0
KQU1 141514Z 01009G15KT 06/M01 A3039 RMK A01 T00601005  RH  063%=      5-min Rain = 0
KQU1 141515Z 01005G10KT 06/M01 A3039 RMK A01 T00601005  RH  063%=      5-min Rain = 0
KQU1 141516Z 01004KT 06/M00 A3039 RMK A01 T00601004  RH  063%=      5-min Rain = 0
KQU1 141517Z 01005G10KT 06/M01 A3039 RMK A01 T00611005  RH  063%=      5-min Rain = 0
KQU1 141518Z 03009KT 06/M00 A3039 RMK A01 T00611004  RH  063%=      5-min Rain = 0
KQU1 141519Z 04010KT 06/M01 A3039 RMK A01 T00621005  RH  062%=      5-min Rain = 0
KQU1 141520Z 04010KT 06/M01 A3039 RMK A01 T00611007  RH  062%=      5-min Rain = 0
KQU1 141521Z 04008KT 06/M01 A3039 RMK A01 T00601007  RH  062%=      5-min Rain = 0
KQU1 141522Z 04007KT 06/M01 A3039 RMK A01 T00601006  RH  062%=      5-min Rain = 0
KQU1 141523Z 04006KT 06/M01 A3039 RMK A01 T00601006  RH  063%=      5-min Rain = 0
KQU1 141524Z 03009KT 06/M01 A3039 RMK A01 T00611005  RH  063%=      5-min Rain = 0
KQU1 141525Z 03009KT 06/M01 A3039 RMK A01 T00611005  RH  062%=      5-min Rain = 0
KQU1 141526Z 02008KT 06/M01 A3039 RMK A01 T00621005  RH  062%=      5-min Rain = 0
KQU1 141527Z 02007KT 06/M01 A3039 RMK A01 T00621005  RH  062%=      5-min Rain = 0
KQU1 141528Z 03007KT 06/M01 A3039 RMK A01 T00621005  RH  062%=      5-min Rain = 0
KQU1 141529Z 03009KT 06/M01 A3039 RMK A01 T00621006  RH  062%=      5-min Rain = 0
KQU1 141530Z 03009KT 06/M01 A3039 RMK A01 T00621006  RH  062%=      5-min Rain = 0
KQU1 141531Z 02010KT 06/M01 A3039 RMK A01 T00621006  RH  062%=      5-min Rain = 0
KQU1 141532Z 01008KT 06/M01 A3039 RMK A01 T00621005  RH  062%=      5-min Rain = 0
KQU1 141533Z 01010KT 06/M01 A3039 RMK A01 T00631005  RH  062%=      5-min Rain = 0
KQU1 141534Z 02008KT 06/M01 A3039 RMK A01 T00631005  RH  062%=      5-min Rain = 0
KQU1 141535Z 02009KT 06/M01 A3039 RMK A01 T00631005  RH  062%=      5-min Rain = 0
KQU1 141536Z 03007KT 06/M00 A304 RMK A01 T00641004  RH  062%=      5-min Rain = 0
KQU1 141537Z 02011KT 07/M00 A304 RMK A01 T00651003  RH  062%=      5-min Rain = 0
KQU1 141538Z 02010KT 07/M00 A304 RMK A01 T00651004  RH  061%=      5-min Rain = 0
KQU1 141539Z 03012KT 07/M01 A304 RMK A01 T00651006  RH  061%=      5-min Rain = 0
KQU1 141540Z 03011KT 07/M01 A304 RMK A01 T00651005  RH  061%=      5-min Rain = 0
KQU1 141541Z 03010KT 07/M01 A304 RMK A01 T00651005  RH  061%=      5-min Rain = 0
KQU1 141542Z 03009KT 07/M01 A304 RMK A01 T00651005  RH  061%=      5-min Rain = 0
KQU1 141543Z 03007KT 07/M01 A304 RMK A01 T00661005  RH  061%=      5-min Rain = 0
KQU1 141544Z 02005KT 07/M00 A304 RMK A01 T00661003  RH  061%=      5-min Rain = 0
KQU1 141545Z 01009G15KT 07/M00 A304 RMK A01 T00681002  RH  061%=      5-min Rain = 0
KQU1 141546Z 02010G16KT 07/M00 A304 RMK A01 T00681003  RH  060%=      5-min Rain = 0
KQU1 141547Z 01010G16KT 07/M01 A304 RMK A01 T00681005  RH  060%=      5-min Rain = 0
KQU1 141548Z 02011KT 07/M01 A304 RMK A01 T00681005  RH  060%=      5-min Rain = 0
KQU1 141549Z 03011KT 07/M00 A304 RMK A01 T00671004  RH  060%=      5-min Rain = 0
KQU1 141550Z 03006G11KT 07/M00 A304 RMK A01 T00671004  RH  060%=      5-min Rain = 0
KQU1 141551Z 02007KT 07/M00 A304 RMK A01 T00691002  RH  061%=      5-min Rain = 0
KQU1 141552Z 02009KT 07/M00 A304 RMK A01 T00701002  RH  060%=      5-min Rain = 0
KQU1 141553Z 03008KT 07/M00 A304 RMK A01 T00701003  RH  060%=      5-min Rain = 0
KQU1 141554Z 01010KT 07/M00 A304 RMK A01 T00711004  RH  059%=      5-min Rain = 0
KQU1 141555Z 03010KT 07/M00 A304 RMK A01 T00701004  RH  059%=      5-min Rain = 0
KQU1 141556Z 03010KT 07/M01 A304 RMK A01 T00701005  RH  059%=      5-min Rain = 0
KQU1 141557Z 03011KT 07/M01 A304 RMK A01 T00701005  RH  059%=      5-min Rain = 0
KQU1 141558Z 04010KT 07/M01 A304 RMK A01 T00701006  RH  058%=      5-min Rain = 0
KQU1 141559Z 03008KT 07/M01 A304 RMK A01 T00701005  RH  059%=      5-min Rain = 0
KQU1 141600Z 03008KT 07/M00 A304 RMK A01 T00701004  RH  059%=      5-min Rain = 0
KQU1 141601Z 04011KT 07/M01 A304 RMK A01 T00701006  RH  058%=      5-min Rain = 0
KQU1 141602Z 03012KT 07/M01 A304 RMK A01 T00701007  RH  058%=      5-min Rain = 0
KQU1 141603Z 03012KT 07/M01 A304 RMK A01 T00701006  RH  058%=      5-min Rain = 0
KQU1 141604Z 03011KT 07/M01 A304 RMK A01 T00701006  RH  058%=      5-min Rain = 0
KQU1 141605Z 03012KT 07/M01 A304 RMK A01 T00701007  RH  058%=      5-min Rain = 0
KQU1 141606Z 03011KT 07/M01 A304 RMK A01 T00711006  RH  058%=      5-min Rain = 0
KQU1 141607Z 03014KT 07/M01 A304 RMK A01 T00711008  RH  057%=      5-min Rain = 0
KQU1 141608Z 02012KT 07/M01 A3041 RMK A01 T00711007  RH  057%=      5-min Rain = 0
KQU1 141609Z 02008G13KT 07/M01 A304 RMK A01 T00711007  RH  057%=      5-min Rain = 0
KQU1 141610Z 03009KT 07/M01 A3041 RMK A01 T00721005  RH  058%=      5-min Rain = 0
KQU1 141611Z 03009KT 07/M01 A3041 RMK A01 T00721007  RH  057%=      5-min Rain = 0
KQU1 141612Z 04008KT 07/M01 A3041 RMK A01 T00721006  RH  057%=      5-min Rain = 0
KQU1 141613Z 03009KT 07/M01 A3041 RMK A01 T00731006  RH  057%=      5-min Rain = 0
KQU1 141614Z 05009KT 07/M01 A3041 RMK A01 T00741006  RH  057%=      5-min Rain = 0
KQU1 141615Z 04010KT 08/M01 A3041 RMK A01 T00751006  RH  056%=      5-min Rain = 0
KQU1 141616Z 02009KT 08/M01 A3041 RMK A01 T00751006  RH  056%=      5-min Rain = 0
KQU1 141617Z 02009KT 08/M01 A3041 RMK A01 T00751006  RH  056%=      5-min Rain = 0
KQU1 141618Z 03010KT 08/M01 A3041 RMK A01 T00751006  RH  056%=      5-min Rain = 0
KQU1 141619Z 02008KT 08/M01 A3041 RMK A01 T00751007  RH  056%=      5-min Rain = 0
KQU1 141620Z 03009KT 08/M01 A3041 RMK A01 T00751005  RH  057%=      5-min Rain = 0
KQU1 141621Z 03008KT 08/M01 A3041 RMK A01 T00751006  RH  056%=      5-min Rain = 0
KQU1 141622Z 02009KT 08/M01 A3041 RMK A01 T00761005  RH  056%=      5-min Rain = 0
KQU1 141623Z 02010G17KT 08/M01 A3041 RMK A01 T00771006  RH  056%=      5-min Rain = 0
KQU1 141624Z 02012G18KT 08/M01 A3041 RMK A01 T00771007  RH  055%=      5-min Rain = 0
KQU1 141625Z 03011KT 08/M01 A3041 RMK A01 T00781007  RH  055%=      5-min Rain = 0
KQU1 141626Z 01010KT 08/M01 A3041 RMK A01 T00781007  RH  055%=      5-min Rain = 0
KQU1 141627Z 02011KT 08/M01 A3041 RMK A01 T00781008  RH  055%=      5-min Rain = 0
KQU1 141628Z 03010KT 08/M01 A3041 RMK A01 T00781008  RH  055%=      5-min Rain = 0
KQU1 141629Z 03012KT 08/M01 A3041 RMK A01 T00771009  RH  055%=      5-min Rain = 0
KQU1 141630Z 03013KT 08/M01 A3041 RMK A01 T00761010  RH  055%=      5-min Rain = 0
KQU1 141631Z 02010KT 08/M01 A3041 RMK A01 T00761008  RH  055%=      5-min Rain = 0
KQU1 141632Z 02008G14KT 08/M01 A3041 RMK A01 T00761007  RH  056%=      5-min Rain = 0
KQU1 141633Z 02009KT 08/M01 A3041 RMK A01 T00761007  RH  055%=      5-min Rain = 0
KQU1 141634Z 02011KT 08/M01 A3041 RMK A01 T00771007  RH  055%=      5-min Rain = 0
KQU1 141635Z 02009KT 08/M01 A3041 RMK A01 T00771008  RH  055%=      5-min Rain = 0
KQU1 141636Z 03006KT 08/M01 A3041 RMK A01 T00781007  RH  055%=      5-min Rain = 0
KQU1 141637Z 02006KT 08/M01 A3041 RMK A01 T00791006  RH  055%=      5-min Rain = 0
KQU1 141638Z 02005KT 08/M01 A3041 RMK A01 T00801005  RH  055%=      5-min Rain = 0
KQU1 141639Z 01010G16KT 08/M01 A3041 RMK A01 T00811005  RH  054%=      5-min Rain = 0
KQU1 141640Z 01008G13KT 08/M01 A3041 RMK A01 T00811007  RH  054%=      5-min Rain = 0
KQU1 141641Z 03009KT 08/M01 A3041 RMK A01 T00811007  RH  054%=      5-min Rain = 0
KQU1 141642Z 02010KT 08/M01 A3041 RMK A01 T00811007  RH  054%=      5-min Rain = 0
KQU1 141643Z 02007KT 08/M01 A3041 RMK A01 T00811006  RH  054%=      5-min Rain = 0
KQU1 141644Z 02011KT 08/M01 A3041 RMK A01 T00811008  RH  054%=      5-min Rain = 0
KQU1 141645Z 02007KT 08/M01 A3041 RMK A01 T00811006  RH  054%=      5-min Rain = 0
KQU1 141646Z 03010KT 08/M01 A3041 RMK A01 T00811005  RH  054%=      5-min Rain = 0
KQU1 141647Z 03013KT 08/M01 A3041 RMK A01 T00811007  RH  054%=      5-min Rain = 0
KQU1 141648Z 03011KT 08/M01 A3041 RMK A01 T00801008  RH  054%=      5-min Rain = 0
KQU1 141649Z 03012KT 08/M01 A3041 RMK A01 T00801008  RH  054%=      5-min Rain = 0
KQU1 141650Z 04012KT 08/M01 A3041 RMK A01 T00801007  RH  054%=      5-min Rain = 0
KQU1 141651Z 04013KT 08/M01 A3041 RMK A01 T00801007  RH  054%=      5-min Rain = 0
KQU1 141652Z 04012G17KT 08/M01 A3041 RMK A01 T00801009  RH  054%=      5-min Rain = 0
KQU1 141653Z 03013G18KT 08/M01 A3041 RMK A01 T00801008  RH  054%=      5-min Rain = 0
KQU1 141654Z 03011KT 08/M01 A3041 RMK A01 T00801008  RH  054%=      5-min Rain = 0
KQU1 141655Z 03012KT 08/M01 A3041 RMK A01 T00801008  RH  054%=      5-min Rain = 0
KQU1 141656Z 02012G17KT 08/M01 A3041 RMK A01 T00801008  RH  054%=      5-min Rain = 0
KQU1 141657Z 02013KT 08/M01 A3041 RMK A01 T00811007  RH  054%=      5-min Rain = 0
KQU1 141658Z 03012KT 08/M01 A3041 RMK A01 T00811006  RH  054%=      5-min Rain = 0
KQU1 141659Z 03013KT 08/M01 A3041 RMK A01 T00811008  RH  054%=      5-min Rain = 0
KQU1 141700Z 03011KT 08/M01 A3042 RMK A01 T00791009  RH  054%=      5-min Rain = 0
KQU1 141701Z 03012KT 08/M01 A3042 RMK A01 T00791008  RH  054%=      5-min Rain = 0
KQU1 141702Z 03010KT 08/M01 A3042 RMK A01 T00801008  RH  054%=      5-min Rain = 0
KQU1 141703Z 04013KT 08/M01 A3042 RMK A01 T00801008  RH  054%=      5-min Rain = 0
KQU1 141704Z 02011KT 08/M01 A3042 RMK A01 T00801008  RH  054%=      5-min Rain = 0
KQU1 141705Z 01007KT 08/M01 A3042 RMK A01 T00811006  RH  054%=      5-min Rain = 0
KQU1 141706Z 03006KT 08/M01 A3042 RMK A01 T00831005  RH  054%=      5-min Rain = 0
KQU1 141707Z 03011KT 08/M01 A3042 RMK A01 T00841006  RH  053%=      5-min Rain = 0
KQU1 141708Z 04012KT 08/M01 A3042 RMK A01 T00841008  RH  052%=      5-min Rain = 0
KQU1 141709Z 03011KT 08/M01 A3042 RMK A01 T00831008  RH  053%=      5-min Rain = 0
KQU1 141710Z 03010KT 08/M01 A3042 RMK A01 T00831006  RH  053%=      5-min Rain = 0
KQU1 141711Z 02009KT 08/M01 A3042 RMK A01 T00841005  RH  053%=      5-min Rain = 0
KQU1 141712Z 02007KT 09/M01 A3042 RMK A01 T00851006  RH  053%=      5-min Rain = 0
KQU1 141713Z 04007KT 09/M00 A3042 RMK A01 T00861003  RH  054%=      5-min Rain = 0
KQU1 141714Z 03005KT 09/M00 A3041 RMK A01 T00881002  RH  053%=      5-min Rain = 0
KQU1 141715Z 02006G11KT 09/M00 A3041 RMK A01 T00891004  RH  052%=      5-min Rain = 0
KQU1 141716Z 36005G11KT 09/M01 A3042 RMK A01 T00891005  RH  052%=      5-min Rain = 0
KQU1 141717Z 36005G10KT 09/M00 A3042 RMK A01 T00891003  RH  052%=      5-min Rain = 0
KQU1 141718Z 00004KT 09/M00 A3042 RMK A01 T00891004  RH  052%=      5-min Rain = 0
KQU1 141719Z 36007KT 09/M00 A3042 RMK A01 T00901004  RH  052%=      5-min Rain = 0
KQU1 141720Z 04004KT 09/M00 A3041 RMK A01 T00901003  RH  052%=      5-min Rain = 0
KQU1 141721Z 05005KT 09/M01 A3041 RMK A01 T00911005  RH  051%=      5-min Rain = 0
KQU1 141722Z 06005KT 09/M00 A3041 RMK A01 T00911004  RH  051%=      5-min Rain = 0
KQU1 141723Z 06011KT 09/M00 A3041 RMK A01 T00921004  RH  051%=      5-min Rain = 0
KQU1 141724Z 05010KT 09/M00 A3041 RMK A01 T00931003  RH  051%=      5-min Rain = 0
KQU1 141725Z 06009KT 09/M00 A3041 RMK A01 T00941004  RH  050%=      5-min Rain = 0
KQU1 141726Z 05009KT 09/M01 A3041 RMK A01 T00941007  RH  049%=      5-min Rain = 0
KQU1 141727Z 05007KT 09/M01 A3041 RMK A01 T00931007  RH  050%=      5-min Rain = 0
KQU1 141728Z 04005KT 09/M01 A3041 RMK A01 T00931005  RH  050%=      5-min Rain = 0
KQU1 141729Z 04008KT 09/M01 A3041 RMK A01 T00941005  RH  050%=      5-min Rain = 0
KQU1 141730Z 05009KT 09/M01 A3041 RMK A01 T00941008  RH  049%=      5-min Rain = 0
KQU1 141731Z 05008KT 09/M01 A3041 RMK A01 T00931006  RH  050%=      5-min Rain = 0
KQU1 141732Z 03007KT 09/M01 A3041 RMK A01 T00931006  RH  050%=      5-min Rain = 0
KQU1 141733Z 03008KT 09/M00 A3041 RMK A01 T00941004  RH  051%=      5-min Rain = 0
KQU1 141734Z 05007KT 10/M01 A3041 RMK A01 T00951005  RH  050%=      5-min Rain = 0
KQU1 141735Z 03010KT 10/M01 A3041 RMK A01 T00951006  RH  049%=      5-min Rain = 0
KQU1 141736Z 04009KT 09/M01 A3041 RMK A01 T00941008  RH  049%=      5-min Rain = 0
KQU1 141737Z 05006KT 09/M01 A3041 RMK A01 T00931006  RH  050%=      5-min Rain = 0
KQU1 141738Z 04008KT 09/M01 A3041 RMK A01 T00941005  RH  050%=      5-min Rain = 0
KQU1 141739Z 05008KT 09/M01 A3041 RMK A01 T00941007  RH  049%=      5-min Rain = 0
KQU1 141740Z 04006KT 09/M01 A3041 RMK A01 T00941006  RH  049%=      5-min Rain = 0
KQU1 141741Z 04010KT 10/M01 A3041 RMK A01 T00951007  RH  049%=      5-min Rain = 0
KQU1 141742Z 04012KT 10/M01 A3041 RMK A01 T00951008  RH  048%=      5-min Rain = 0
KQU1 141743Z 05012KT 09/M01 A3041 RMK A01 T00941009  RH  048%=      5-min Rain = 0
KQU1 141744Z 04010KT 09/M01 A3041 RMK A01 T00941009  RH  049%=      5-min Rain = 0
KQU1 141745Z 04007KT 09/M01 A3041 RMK A01 T00941008  RH  049%=      5-min Rain = 0
KQU1 141746Z 04008KT 09/M01 A3041 RMK A01 T00941010  RH  048%=      5-min Rain = 0
KQU1 141747Z 04006KT 09/M01 A3041 RMK A01 T00941009  RH  049%=      5-min Rain = 0
KQU1 141748Z 06008G13KT 10/M01 A3041 RMK A01 T00951008  RH  049%=      5-min Rain = 0
KQU1 141749Z 07011KT 10/M01 A3041 RMK A01 T00971008  RH  048%=      5-min Rain = 0
KQU1 141750Z 06009KT 10/M01 A304 RMK A01 T00991008  RH  047%=      5-min Rain = 0
KQU1 141751Z 07011KT 10/M01 A304 RMK A01 T01011007  RH  047%=      5-min Rain = 0
KQU1 141752Z 08011KT 10/M01 A304 RMK A01 T01031008  RH  046%=      5-min Rain = 0
KQU1 141753Z 06010KT 10/M01 A304 RMK A01 T01041008  RH  046%=      5-min Rain = 0
KQU1 141754Z 02006KT 11/M01 A304 RMK A01 T01051006  RH  046%=      5-min Rain = 0
KQU1 141755Z 01005G11KT 11/M01 A304 RMK A01 T01051006  RH  046%=      5-min Rain = 0
KQU1 141756Z 03012G17KT 11/M01 A304 RMK A01 T01051008  RH  045%=      5-min Rain = 0
KQU1 141757Z 04010KT 10/M01 A304 RMK A01 T01021010  RH  045%=      5-min Rain = 0
KQU1 141758Z 04010KT 10/M01 A304 RMK A01 T01021010  RH  046%=      5-min Rain = 0
KQU1 141759Z 03011KT 10/M01 A304 RMK A01 T01001011  RH  046%=      5-min Rain = 0
KQU1 141800Z 03008KT 10/M01 A304 RMK A01 T01001010  RH  046%=      5-min Rain = 0
KQU1 141801Z 04006KT 10/M01 A304 RMK A01 T00991011  RH  046%=      5-min Rain = 0
KQU1 141802Z 02008KT 10/M01 A304 RMK A01 T01001009  RH  047%=      5-min Rain = 0
KQU1 141803Z 02007KT 10/M01 A304 RMK A01 T01001009  RH  047%=      5-min Rain = 0
KQU1 141804Z 03005KT 10/M01 A304 RMK A01 T01011010  RH  046%=      5-min Rain = 0
KQU1 141805Z 04005KT 10/M01 A304 RMK A01 T01011008  RH  047%=      5-min Rain = 0
KQU1 141806Z 03007KT 10/M01 A304 RMK A01 T01011011  RH  046%=      5-min Rain = 0
KQU1 141807Z 04008KT 10/M01 A304 RMK A01 T01011009  RH  046%=      5-min Rain = 0
KQU1 141808Z 04008KT 10/M01 A304 RMK A01 T01021007  RH  047%=      5-min Rain = 0
KQU1 141809Z 04008G13KT 10/M01 A304 RMK A01 T01031007  RH  046%=      5-min Rain = 0
KQU1 141810Z 06007KT 10/M01 A304 RMK A01 T01031009  RH  046%=      5-min Rain = 0
KQU1 141811Z 05007KT 10/M01 A304 RMK A01 T01031008  RH  046%=      5-min Rain = 0
KQU1 141812Z 07008KT 10/M01 A304 RMK A01 T01041007  RH  046%=      5-min Rain = 0
KQU1 141813Z 06009KT 11/M01 A304 RMK A01 T01051008  RH  046%=      5-min Rain = 0
KQU1 141814Z 05010KT 11/M01 A304 RMK A01 T01061007  RH  045%=      5-min Rain = 0
KQU1 141815Z 04008KT 11/M01 A304 RMK A01 T01071007  RH  045%=      5-min Rain = 0
KQU1 141816Z 04009G14KT 11/M01 A304 RMK A01 T01071010  RH  044%=      5-min Rain = 0
KQU1 141817Z 03008G13KT 11/M01 A304 RMK A01 T01051011  RH  044%=      5-min Rain = 0
KQU1 141818Z 05007KT 10/M01 A304 RMK A01 T01041009  RH  045%=      5-min Rain = 0
KQU1 141819Z 05006KT 10/M01 A304 RMK A01 T01041010  RH  045%=      5-min Rain = 0
KQU1 141820Z 02008KT 11/M01 A304 RMK A01 T01051008  RH  046%=      5-min Rain = 0
KQU1 141821Z 06005KT 11/M01 A304 RMK A01 T01051008  RH  046%=      5-min Rain = 0
KQU1 141822Z 06003KT 11/M01 A3039 RMK A01 T01061006  RH  046%=      5-min Rain = 0
KQU1 141823Z 02006G12KT 11/M01 A3039 RMK A01 T01081006  RH  045%=      5-min Rain = 0
KQU1 141824Z 02010KT 11/M01 A3039 RMK A01 T01081008  RH  044%=      5-min Rain = 0
KQU1 141825Z 01009G15KT 11/M01 A3039 RMK A01 T01081009  RH  044%=      5-min Rain = 0
KQU1 141826Z 01009KT 11/M01 A3039 RMK A01 T01061010  RH  044%=      5-min Rain = 0
KQU1 141827Z 02007KT 11/M01 A3039 RMK A01 T01051010  RH  045%=      5-min Rain = 0
KQU1 141828Z 02005KT 11/M01 A3039 RMK A01 T01051010  RH  045%=      5-min Rain = 0
KQU1 141829Z 01006KT 11/M01 A3039 RMK A01 T01051007  RH  046%=      5-min Rain = 0
KQU1 141830Z 02008KT 11/M01 A3039 RMK A01 T01061008  RH  045%=      5-min Rain = 0
KQU1 141831Z 01004KT 11/M01 A3039 RMK A01 T01071008  RH  045%=      5-min Rain = 0
KQU1 141832Z 01004KT 11/M01 A3039 RMK A01 T01071007  RH  045%=      5-min Rain = 0
KQU1 141833Z 04008G15KT 11/M01 A3039 RMK A01 T01081007  RH  045%=      5-min Rain = 0
KQU1 141834Z 03009G14KT 11/M01 A3039 RMK A01 T01081011  RH  044%=      5-min Rain = 0
KQU1 141835Z 02006KT 11/M01 A3039 RMK A01 T01071008  RH  045%=      5-min Rain = 0
KQU1 141836Z 03006KT 11/M01 A3039 RMK A01 T01081009  RH  044%=      5-min Rain = 0
KQU1 141837Z 03007KT 11/M01 A3039 RMK A01 T01081009  RH  044%=      5-min Rain = 0
KQU1 141838Z 01007G12KT 11/M01 A3039 RMK A01 T01081008  RH  045%=      5-min Rain = 0
KQU1 141839Z 00006KT 11/M01 A3039 RMK A01 T01081008  RH  045%=      5-min Rain = 0
KQU1 141840Z 03005KT 11/M01 A3039 RMK A01 T01091007  RH  045%=      5-min Rain = 0
KQU1 141841Z 03010G15KT 11/M01 A3039 RMK A01 T01111008  RH  044%=      5-min Rain = 0
KQU1 141842Z 03011KT 11/M01 A3039 RMK A01 T01101010  RH  043%=      5-min Rain = 0
KQU1 141843Z 03009KT 11/M01 A3039 RMK A01 T01091009  RH  044%=      5-min Rain = 0
KQU1 141844Z 05007KT 11/M01 A3039 RMK A01 T01081011  RH  044%=      5-min Rain = 0
KQU1 141845Z 04005KT 11/M01 A3039 RMK A01 T01081010  RH  044%=      5-min Rain = 0
KQU1 141846Z 04006KT 11/M01 A3039 RMK A01 T01091007  RH  044%=      5-min Rain = 0
KQU1 141847Z 03007KT 11/M01 A3039 RMK A01 T01101007  RH  044%=      5-min Rain = 0
KQU1 141848Z 02006KT 11/M01 A3039 RMK A01 T01111009  RH  043%=      5-min Rain = 0
KQU1 141849Z 03007KT 11/M01 A3039 RMK A01 T01101008  RH  044%=      5-min Rain = 0
KQU1 141850Z 04010KT 11/M01 A3038 RMK A01 T01101010  RH  043%=      5-min Rain = 0
KQU1 141851Z 04011KT 11/M01 A3038 RMK A01 T01091011  RH  043%=      5-min Rain = 0
KQU1 141852Z 05007KT 11/M01 A3038 RMK A01 T01091012  RH  043%=      5-min Rain = 0
KQU1 141853Z 05009KT 11/M01 A3038 RMK A01 T01091010  RH  044%=      5-min Rain = 0
KQU1 141854Z 04011KT 11/M01 A3038 RMK A01 T01101009  RH  044%=      5-min Rain = 0
KQU1 141855Z 05011KT 11/M01 A3038 RMK A01 T01101011  RH  043%=      5-min Rain = 0
KQU1 141856Z 06011KT 11/M01 A3038 RMK A01 T01111009  RH  043%=      5-min Rain = 0
KQU1 141857Z 08008KT 11/M01 A3038 RMK A01 T01111012  RH  042%=      5-min Rain = 0
KQU1 141858Z 07011KT 11/M01 A3038 RMK A01 T01111010  RH  043%=      5-min Rain = 0
KQU1 141859Z 07010KT 11/M01 A3038 RMK A01 T01121010  RH  043%=      5-min Rain = 0
KQU1 141900Z 04006KT 11/M01 A3038 RMK A01 T01131010  RH  043%=      5-min Rain = 0
KQU1 141901Z 04010KT 11/M01 A3038 RMK A01 T01141010  RH  042%=      5-min Rain = 0
KQU1 141902Z 05008KT 11/M01 A3038 RMK A01 T01141009  RH  042%=      5-min Rain = 0
KQU1 141903Z 05008KT 11/M01 A3038 RMK A01 T01141009  RH  042%=      5-min Rain = 0
KQU1 141904Z 06010KT 12/M01 A3038 RMK A01 T01151009  RH  042%=      5-min Rain = 0
KQU1 141905Z 06008KT 12/M01 A3038 RMK A01 T01151012  RH  041%=      5-min Rain = 0
KQU1 141906Z 08005KT 11/M01 A3038 RMK A01 T01141011  RH  042%=      5-min Rain = 0
KQU1 141907Z 07010KT 11/M01 A3038 RMK A01 T01141012  RH  042%=      5-min Rain = 0
KQU1 141908Z 07010KT 11/M01 A3038 RMK A01 T01141012  RH  042%=      5-min Rain = 0
KQU1 141909Z 07009KT 11/M01 A3038 RMK A01 T01141012  RH  041%=      5-min Rain = 0
KQU1 141910Z 06008KT 11/M01 A3038 RMK A01 T01141014  RH  041%=      5-min Rain = 0
KQU1 141911Z 07004KT 11/M01 A3038 RMK A01 T01131014  RH  041%=      5-min Rain = 0
KQU1 141912Z 04004KT 11/M01 A3038 RMK A01 T01121012  RH  042%=      5-min Rain = 0
KQU1 141913Z 02007KT 11/M01 A3038 RMK A01 T01131010  RH  043%=      5-min Rain = 0
KQU1 141914Z 03009KT 11/M01 A3038 RMK A01 T01141010  RH  042%=      5-min Rain = 0
KQU1 141915Z 02009KT 12/M01 A3038 RMK A01 T01151011  RH  042%=      5-min Rain = 0
KQU1 141916Z 03007KT 11/M01 A3038 RMK A01 T01141012  RH  042%=      5-min Rain = 0
KQU1 141917Z 06007KT 11/M01 A3038 RMK A01 T01131009  RH  043%=      5-min Rain = 0
KQU1 141918Z 07009KT 12/M01 A3038 RMK A01 T01151011  RH  042%=      5-min Rain = 0
KQU1 141919Z 08007KT 12/M01 A3038 RMK A01 T01151012  RH  041%=      5-min Rain = 0
KQU1 141920Z 07006KT 12/M01 A3037 RMK A01 T01161011  RH  041%=      5-min Rain = 0
KQU1 141921Z 06006KT 12/M01 A3037 RMK A01 T01181010  RH  041%=      5-min Rain = 0
KQU1 141922Z 04007KT 12/M01 A3037 RMK A01 T01191010  RH  041%=      5-min Rain = 0
KQU1 141923Z 06009KT 12/M01 A3037 RMK A01 T01211011  RH  040%=      5-min Rain = 0
KQU1 141924Z 06012KT 12/M01 A3037 RMK A01 T01211012  RH  040%=      5-min Rain = 0
KQU1 141925Z 06011KT 12/M01 A3037 RMK A01 T01201013  RH  039%=      5-min Rain = 0
KQU1 141926Z 07011KT 12/M01 A3037 RMK A01 T01201013  RH  040%=      5-min Rain = 0
KQU1 141927Z 06013G18KT 12/M01 A3037 RMK A01 T01201012  RH  040%=      5-min Rain = 0
KQU1 141928Z 07014KT 12/M01 A3037 RMK A01 T01211013  RH  039%=      5-min Rain = 0
KQU1 141929Z 07013KT 12/M01 A3037 RMK A01 T01211013  RH  039%=      5-min Rain = 0
KQU1 141930Z 07011KT 12/M01 A3037 RMK A01 T01211012  RH  040%=      5-min Rain = 0
KQU1 141931Z 06014KT 12/M01 A3037 RMK A01 T01221013  RH  039%=      5-min Rain = 0
KQU1 141932Z 06011KT 12/M02 A3037 RMK A01 T01211015  RH  039%=      5-min Rain = 0
KQU1 141933Z 05008KT 12/M01 A3037 RMK A01 T01201014  RH  039%=      5-min Rain = 0
KQU1 141934Z 05006KT 12/M01 A3037 RMK A01 T01201014  RH  039%=      5-min Rain = 0
KQU1 141935Z 04008G13KT 12/M01 A3037 RMK A01 T01201013  RH  040%=      5-min Rain = 0
KQU1 141936Z 03009KT 12/M01 A3037 RMK A01 T01201014  RH  039%=      5-min Rain = 0
KQU1 141937Z 03009KT 12/M01 A3037 RMK A01 T01181014  RH  040%=      5-min Rain = 0
KQU1 141938Z 04004G9KT 12/M01 A3037 RMK A01 T01171012  RH  041%=      5-min Rain = 0
KQU1 141939Z 04007KT 12/M01 A3037 RMK A01 T01171011  RH  041%=      5-min Rain = 0
KQU1 141940Z 06009KT 12/M01 A3037 RMK A01 T01191012  RH  040%=      5-min Rain = 0
KQU1 141941Z 05010KT 12/M01 A3037 RMK A01 T01191012  RH  040%=      5-min Rain = 0
KQU1 141942Z 03011KT 12/M01 A3037 RMK A01 T01201014  RH  040%=      5-min Rain = 0
KQU1 141943Z 03006G11KT 12/M02 A3037 RMK A01 T01191015  RH  039%=      5-min Rain = 0
KQU1 141944Z 05008KT 12/M01 A3037 RMK A01 T01181013  RH  040%=      5-min Rain = 0
KQU1 141945Z 05007KT 12/M01 A3037 RMK A01 T01201012  RH  040%=      5-min Rain = 0
KQU1 141946Z 05010KT 12/M01 A3036 RMK A01 T01211012  RH  040%=      5-min Rain = 0
KQU1 141947Z 04008KT 12/M01 A3036 RMK A01 T01221012  RH  039%=      5-min Rain = 0
KQU1 141948Z 03009KT 12/M01 A3036 RMK A01 T01221014  RH  039%=      5-min Rain = 0
KQU1 141949Z 04007KT 12/M01 A3036 RMK A01 T01211013  RH  039%=      5-min Rain = 0
KQU1 141950Z 04010KT 12/M01 A3036 RMK A01 T01201014  RH  039%=      5-min Rain = 0
KQU1 141951Z 04008KT 12/M02 A3036 RMK A01 T01191015  RH  039%=      5-min Rain = 0
KQU1 141952Z 05007KT 12/M02 A3037 RMK A01 T01181016  RH  039%=      5-min Rain = 0
KQU1 141953Z 04006KT 12/M01 A3036 RMK A01 T01181014  RH  040%=      5-min Rain = 0
KQU1 141954Z 05006KT 12/M01 A3037 RMK A01 T01191014  RH  040%=      5-min Rain = 0
KQU1 141955Z 04002KT 12/M01 A3036 RMK A01 T01191013  RH  040%=      5-min Rain = 0
KQU1 141956Z 06003KT 12/M01 A3036 RMK A01 T01211011  RH  040%=      5-min Rain = 0
KQU1 141957Z 05006KT 12/M01 A3036 RMK A01 T01221012  RH  039%=      5-min Rain = 0
KQU1 141958Z 05007KT 12/M01 A3036 RMK A01 T01231013  RH  039%=      5-min Rain = 0
KQU1 141959Z 05007KT 12/M01 A3036 RMK A01 T01231014  RH  039%=      5-min Rain = 0
KQU1 142000Z 06006KT 12/M01 A3036 RMK A01 T01231012  RH  039%=      5-min Rain = 0
KQU1 142001Z 03005KT 12/M01 A3036 RMK A01 T01241010  RH  039%=      5-min Rain = 0
KQU1 142002Z 03003KT 13/M01 A3036 RMK A01 T01261011  RH  039%=      5-min Rain = 0
KQU1 142003Z 02004KT 13/M01 A3036 RMK A01 T01271012  RH  038%=      5-min Rain = 0
KQU1 142004Z 01005KT 13/M01 A3036 RMK A01 T01261013  RH  038%=      5-min Rain = 0
KQU1 142005Z 35003KT 13/M01 A3036 RMK A01 T01251013  RH  039%=      5-min Rain = 0
KQU1 142006Z 05002KT 13/M01 A3036 RMK A01 T01251012  RH  039%=      5-min Rain = 0
KQU1 142007Z 04006KT 13/M01 A3036 RMK A01 T01261010  RH  039%=      5-min Rain = 0
KQU1 142008Z 05010KT 13/M01 A3036 RMK A01 T01271012  RH  038%=      5-min Rain = 0
KQU1 142009Z 05009KT 13/M02 A3036 RMK A01 T01261015  RH  038%=      5-min Rain = 0
KQU1 142010Z 06007KT 13/M02 A3036 RMK A01 T01251015  RH  038%=      5-min Rain = 0
KQU1 142011Z 05006KT 12/M01 A3036 RMK A01 T01241014  RH  038%=      5-min Rain = 0
KQU1 142012Z 03007KT 12/M01 A3036 RMK A01 T01241013  RH  039%=      5-min Rain = 0
KQU1 142013Z 04008KT 12/M01 A3036 RMK A01 T01241013  RH  038%=      5-min Rain = 0
KQU1 142014Z 05009KT 12/M01 A3036 RMK A01 T01241014  RH  038%=      5-min Rain = 0
KQU1 142015Z 04007KT 12/M02 A3036 RMK A01 T01231015  RH  038%=      5-min Rain = 0
KQU1 142016Z 04008KT 12/M01 A3036 RMK A01 T01231013  RH  039%=      5-min Rain = 0
KQU1 142017Z 05009KT 12/M01 A3036 RMK A01 T01231014  RH  039%=      5-min Rain = 0
KQU1 142018Z 05007KT 12/M01 A3036 RMK A01 T01231014  RH  038%=      5-min Rain = 0
KQU1 142019Z 05007KT 12/M01 A3036 RMK A01 T01231013  RH  039%=      5-min Rain = 0
KQU1 142020Z 07007KT 12/M01 A3036 RMK A01 T01241014  RH  038%=      5-min Rain = 0
KQU1 142021Z 05007KT 12/M01 A3036 RMK A01 T01241014  RH  038%=      5-min Rain = 0
KQU1 142022Z 04009KT 12/M02 A3036 RMK A01 T01241015  RH  038%=      5-min Rain = 0
KQU1 142023Z 05008KT 12/M01 A3036 RMK A01 T01231014  RH  039%=      5-min Rain = 0
KQU1 142024Z 03007KT 12/M01 A3036 RMK A01 T01241012  RH  039%=      5-min Rain = 0
KQU1 142025Z 36008KT 12/M01 A3036 RMK A01 T01241011  RH  039%=      5-min Rain = 0
KQU1 142026Z 35007KT 12/M01 A3036 RMK A01 T01241013  RH  038%=      5-min Rain = 0
KQU1 142027Z 35006KT 12/M02 A3036 RMK A01 T01231016  RH  038%=      5-min Rain = 0
KQU1 142028Z 01003KT 12/M02 A3036 RMK A01 T01231016  RH  038%=      5-min Rain = 0
KQU1 142029Z 02003KT 12/M02 A3036 RMK A01 T01231015  RH  038%=      5-min Rain = 0
KQU1 142030Z 06003KT 12/M01 A3036 RMK A01 T01241014  RH  038%=      5-min Rain = 0
KQU1 142031Z 02004KT 13/M01 A3036 RMK A01 T01251012  RH  039%=      5-min Rain = 0
KQU1 142032Z 03005KT 13/M01 A3036 RMK A01 T01261011  RH  039%=      5-min Rain = 0
KQU1 142033Z 03005KT 13/M01 A3036 RMK A01 T01271011  RH  038%=      5-min Rain = 0
KQU1 142034Z 06009KT 13/M01 A3036 RMK A01 T01281011  RH  038%=      5-min Rain = 0
KQU1 142035Z 04009KT 13/M01 A3036 RMK A01 T01281013  RH  038%=      5-min Rain = 0
KQU1 142036Z 04010KT 13/M02 A3036 RMK A01 T01261015  RH  038%=      5-min Rain = 0
KQU1 142037Z 06010KT 13/M01 A3036 RMK A01 T01251013  RH  038%=      5-min Rain = 0
KQU1 142038Z 05009KT 13/M01 A3036 RMK A01 T01251013  RH  038%=      5-min Rain = 0
KQU1 142039Z 06008KT 13/M02 A3036 RMK A01 T01251015  RH  038%=      5-min Rain = 0
KQU1 142040Z 05006KT 12/M02 A3036 RMK A01 T01241016  RH  038%=      5-min Rain = 0
KQU1 142041Z 02005KT 12/M01 A3036 RMK A01 T01241013  RH  039%=      5-min Rain = 0
KQU1 142042Z 05006KT 12/M01 A3036 RMK A01 T01241013  RH  039%=      5-min Rain = 0
KQU1 142043Z 07008KT 12/M01 A3036 RMK A01 T01241013  RH  038%=      5-min Rain = 0
KQU1 142044Z 05009KT 13/M01 A3036 RMK A01 T01251013  RH  038%=      5-min Rain = 0
KQU1 142045Z 04007KT 13/M01 A3036 RMK A01 T01261013  RH  038%=      5-min Rain = 0
KQU1 142046Z 06009KT 13/M01 A3036 RMK A01 T01261014  RH  038%=      5-min Rain = 0
KQU1 142047Z 06009KT 13/M01 A3036 RMK A01 T01261013  RH  038%=      5-min Rain = 0
KQU1 142048Z 04009KT 13/M02 A3036 RMK A01 T01261015  RH  038%=      5-min Rain = 0
KQU1 142049Z 03010KT 13/M01 A3036 RMK A01 T01251012  RH  039%=      5-min Rain = 0
KQU1 142050Z 05011KT 12/M01 A3036 RMK A01 T01241014  RH  038%=      5-min Rain = 0
KQU1 142051Z 06009KT 12/M01 A3036 RMK A01 T01241014  RH  038%=      5-min Rain = 0
KQU1 142052Z 06008KT 12/M01 A3036 RMK A01 T01241013  RH  039%=      5-min Rain = 0
KQU1 142053Z 06006KT 13/M01 A3036 RMK A01 T01251014  RH  038%=      5-min Rain = 0
KQU1 142054Z 06007KT 13/M01 A3036 RMK A01 T01261013  RH  038%=      5-min Rain = 0
KQU1 142055Z 06008KT 13/M01 A3036 RMK A01 T01271014  RH  038%=      5-min Rain = 0
KQU1 142056Z 03007KT 13/M01 A3036 RMK A01 T01271012  RH  038%=      5-min Rain = 0
KQU1 142057Z 04009KT 13/M01 A3036 RMK A01 T01271014  RH  038%=      5-min Rain = 0
KQU1 142058Z 03008KT 13/M02 A3036 RMK A01 T01261015  RH  037%=      5-min Rain = 0
KQU1 142059Z 01005KT 13/M02 A3036 RMK A01 T01251016  RH  038%=      5-min Rain = 0
KQU1 142100Z 00003KT 12/M02 A3036 RMK A01 T01241016  RH  038%=      5-min Rain = 0
KQU1 142101Z 04004KT 12/M02 A3036 RMK A01 T01241015  RH  038%=      5-min Rain = 0
KQU1 142102Z 06008KT 13/M01 A3036 RMK A01 T01251014  RH  038%=      5-min Rain = 0
KQU1 142103Z 06008KT 13/M01 A3036 RMK A01 T01261013  RH  038%=      5-min Rain = 0
KQU1 142104Z 07007KT 13/M01 A3036 RMK A01 T01271013  RH  038%=      5-min Rain = 0
KQU1 142105Z 07006KT 13/M01 A3036 RMK A01 T01281014  RH  037%=      5-min Rain = 0
KQU1 142106Z 06005KT 13/M02 A3036 RMK A01 T01281015  RH  037%=      5-min Rain = 0
KQU1 142107Z 03003KT 13/M02 A3036 RMK A01 T01281015  RH  037%=      5-min Rain = 0
KQU1 142108Z 03002KT 13/M01 A3036 RMK A01 T01281014  RH  037%=      5-min Rain = 0
KQU1 142109Z 01003KT 13/M01 A3036 RMK A01 T01291013  RH  037%=      5-min Rain = 0
KQU1 142110Z 02006KT 13/M01 A3036 RMK A01 T01291013  RH  037%=      5-min Rain = 0
KQU1 142111Z 01008KT 13/M01 A3036 RMK A01 T01281014  RH  037%=      5-min Rain = 0
KQU1 142112Z 06007KT 13/M01 A3036 RMK A01 T01261013  RH  038%=      5-min Rain = 0
KQU1 142113Z 06007KT 13/M01 A3036 RMK A01 T01271013  RH  038%=      5-min Rain = 0
KQU1 142114Z 07006KT 13/M01 A3036 RMK A01 T01281014  RH  037%=      5-min Rain = 0
KQU1 142115Z 07008KT 13/M01 A3036 RMK A01 T01281013  RH  038%=      5-min Rain = 0
KQU1 142116Z 06010KT 13/M01 A3036 RMK A01 T01291014  RH  037%=      5-min Rain = 0
KQU1 142117Z 07008KT 13/M01 A3036 RMK A01 T01281014  RH  037%=      5-min Rain = 0
KQU1 142118Z 06009KT 13/M01 A3036 RMK A01 T01281014  RH  037%=      5-min Rain = 0
KQU1 142119Z 06008KT 13/M02 A3036 RMK A01 T01281015  RH  037%=      5-min Rain = 0
KQU1 142120Z 05005KT 13/M02 A3036 RMK A01 T01271015  RH  037%=      5-min Rain = 0
KQU1 142121Z 03004KT 13/M01 A3036 RMK A01 T01281014  RH  037%=      5-min Rain = 0
KQU1 142122Z 04006KT 13/M01 A3036 RMK A01 T01281014  RH  037%=      5-min Rain = 0
KQU1 142123Z 04007KT 13/M01 A3036 RMK A01 T01281014  RH  037%=      5-min Rain = 0
KQU1 142124Z 05006KT 13/M01 A3036 RMK A01 T01291012  RH  038%=      5-min Rain = 0
KQU1 142125Z 06005KT 13/M01 A3036 RMK A01 T01301014  RH  037%=      5-min Rain = 0
KQU1 142126Z 06005KT 13/M01 A3036 RMK A01 T01301014  RH  037%=      5-min Rain = 0
KQU1 142127Z 07006KT 13/M01 A3036 RMK A01 T01301014  RH  037%=      5-min Rain = 0
KQU1 142128Z 06007KT 13/M02 A3036 RMK A01 T01291015  RH  037%=      5-min Rain = 0
KQU1 142129Z 05004KT 13/M01 A3036 RMK A01 T01291014  RH  037%=      5-min Rain = 0
KQU1 142130Z 07005KT 13/M01 A3036 RMK A01 T01291014  RH  037%=      5-min Rain = 0
KQU1 142131Z 07004G9KT 13/M02 A3036 RMK A01 T01291015  RH  037%=      5-min Rain = 0
KQU1 142132Z 05008KT 13/M01 A3036 RMK A01 T01291014  RH  037%=      5-min Rain = 0
KQU1 142133Z 05008KT 13/M02 A3036 RMK A01 T01281016  RH  037%=      5-min Rain = 0
KQU1 142134Z 05006KT 13/M02 A3036 RMK A01 T01281015  RH  037%=      5-min Rain = 0
KQU1 142135Z 07008KT 13/M02 A3036 RMK A01 T01281015  RH  037%=      5-min Rain = 0
KQU1 142136Z 08006KT 13/M02 A3036 RMK A01 T01281015  RH  037%=      5-min Rain = 0
KQU1 142137Z 08006KT 13/M01 A3036 RMK A01 T01281013  RH  037%=      5-min Rain = 0
KQU1 142138Z 08006KT 13/M01 A3036 RMK A01 T01291014  RH  037%=      5-min Rain = 0
KQU1 142139Z 09007KT 13/M02 A3036 RMK A01 T01301015  RH  037%=      5-min Rain = 0
KQU1 142140Z 06010KT 13/M01 A3036 RMK A01 T01301013  RH  037%=      5-min Rain = 0
KQU1 142141Z 07008KT 13/M01 A3036 RMK A01 T01301014  RH  037%=      5-min Rain = 0
KQU1 142142Z 06006KT 13/M02 A3036 RMK A01 T01291016  RH  036%=      5-min Rain = 0
KQU1 142143Z 02004KT 13/M02 A3036 RMK A01 T01291015  RH  037%=      5-min Rain = 0
KQU1 142144Z 36003KT 13/M01 A3036 RMK A01 T01281014  RH  037%=      5-min Rain = 0
KQU1 142145Z 00003KT 13/M02 A3036 RMK A01 T01271015  RH  037%=      5-min Rain = 0
KQU1 142146Z 03003KT 13/M02 A3036 RMK A01 T01271015  RH  037%=      5-min Rain = 0
KQU1 142147Z 05006G12KT 13/M01 A3036 RMK A01 T01271014  RH  038%=      5-min Rain = 0
KQU1 142148Z 06009KT 13/M01 A3036 RMK A01 T01281014  RH  037%=      5-min Rain = 0
KQU1 142149Z 09007KT 13/M01 A3036 RMK A01 T01281013  RH  038%=      5-min Rain = 0
KQU1 142150Z 08006KT 13/M01 A3036 RMK A01 T01291012  RH  038%=      5-min Rain = 0
KQU1 142151Z 07008KT 13/M01 A3036 RMK A01 T01301014  RH  037%=      5-min Rain = 0
KQU1 142152Z 07009KT 13/M01 A3036 RMK A01 T01291014  RH  037%=      5-min Rain = 0
KQU1 142153Z 07008KT 13/M01 A3036 RMK A01 T01281014  RH  037%=      5-min Rain = 0
KQU1 142154Z 06007KT 13/M01 A3036 RMK A01 T01281014  RH  037%=      5-min Rain = 0
KQU1 142155Z 04006KT 13/M01 A3036 RMK A01 T01291013  RH  037%=      5-min Rain = 0
KQU1 142156Z 02005KT 13/M02 A3036 RMK A01 T01291015  RH  037%=      5-min Rain = 0
KQU1 142157Z 03004KT 13/M02 A3036 RMK A01 T01281015  RH  037%=      5-min Rain = 0
KQU1 142158Z 04003KT 13/M02 A3036 RMK A01 T01281016  RH  037%=      5-min Rain = 0
KQU1 142159Z 07004KT 13/M01 A3036 RMK A01 T01281014  RH  037%=      5-min Rain = 0
KQU1 142200Z 08005KT 13/M01 A3036 RMK A01 T01291014  RH  037%=      5-min Rain = 0
KQU1 142201Z 07005KT 13/M01 A3036 RMK A01 T01291014  RH  037%=      5-min Rain = 0
KQU1 142202Z 06006KT 13/M01 A3036 RMK A01 T01291013  RH  037%=      5-min Rain = 0
KQU1 142203Z 05005KT 13/M02 A3036 RMK A01 T01291015  RH  037%=      5-min Rain = 0
KQU1 142204Z 07004KT 13/M01 A3036 RMK A01 T01291013  RH  037%=      5-min Rain = 0
KQU1 142205Z 06005KT 13/M01 A3036 RMK A01 T01301014  RH  037%=      5-min Rain = 0
KQU1 142206Z 02004KT 13/M02 A3036 RMK A01 T01291015  RH  037%=      5-min Rain = 0
KQU1 142207Z 03005KT 13/M02 A3036 RMK A01 T01281015  RH  037%=      5-min Rain = 0
KQU1 142208Z 08006KT 13/M02 A3036 RMK A01 T01281015  RH  037%=      5-min Rain = 0
KQU1 142209Z 09007KT 13/M01 A3036 RMK A01 T01281014  RH  037%=      5-min Rain = 0
KQU1 142210Z 09008KT 13/M02 A3036 RMK A01 T01281015  RH  037%=      5-min Rain = 0
KQU1 142211Z 09006KT 13/M01 A3036 RMK A01 T01281014  RH  037%=      5-min Rain = 0
KQU1 142212Z 09005KT 13/M02 A3036 RMK A01 T01281015  RH  037%=      5-min Rain = 0
KQU1 142213Z 09006KT 13/M02 A3036 RMK A01 T01281015  RH  037%=      5-min Rain = 0
KQU1 142214Z 09005KT 13/M02 A3036 RMK A01 T01281015  RH  037%=      5-min Rain = 0
KQU1 142215Z 07005KT 13/M02 A3036 RMK A01 T01281015  RH  037%=      5-min Rain = 0
KQU1 142216Z 05004KT 13/M01 A3036 RMK A01 T01281014  RH  037%=      5-min Rain = 0
KQU1 142217Z 07002KT 13/M01 A3036 RMK A01 T01291014  RH  037%=      5-min Rain = 0
KQU1 142218Z 09003KT 13/M01 A3036 RMK A01 T01301014  RH  037%=      5-min Rain = 0
KQU1 142219Z 11007KT 13/M01 A3036 RMK A01 T01311014  RH  037%=      5-min Rain = 0
KQU1 142220Z 11007KT 13/M02 A3036 RMK A01 T01311015  RH  036%=      5-min Rain = 0
KQU1 142221Z 11007KT 13/M01 A3036 RMK A01 T01301014  RH  037%=      5-min Rain = 0
KQU1 142222Z 11007KT 13/M02 A3036 RMK A01 T01301015  RH  036%=      5-min Rain = 0
KQU1 142223Z 11007KT 13/M02 A3036 RMK A01 T01301016  RH  036%=      5-min Rain = 0
KQU1 142224Z 10007KT 13/M02 A3036 RMK A01 T01301015  RH  037%=      5-min Rain = 0
KQU1 142225Z 08009KT 13/M02 A3036 RMK A01 T01291015  RH  037%=      5-min Rain = 0
KQU1 142226Z 07007KT 13/M02 A3036 RMK A01 T01281015  RH  037%=      5-min Rain = 0
KQU1 142227Z 05007KT 13/M02 A3036 RMK A01 T01281015  RH  037%=      5-min Rain = 0
KQU1 142228Z 06007KT 13/M02 A3036 RMK A01 T01271015  RH  037%=      5-min Rain = 0
KQU1 142229Z 06006KT 13/M01 A3036 RMK A01 T01271014  RH  037%=      5-min Rain = 0
KQU1 142230Z 06006KT 13/M01 A3036 RMK A01 T01271014  RH  037%=      5-min Rain = 0
KQU1 142231Z 06006KT 13/M01 A3036 RMK A01 T01271014  RH  038%=      5-min Rain = 0
KQU1 142232Z 06005KT 13/M01 A3036 RMK A01 T01271014  RH  038%=      5-min Rain = 0
KQU1 142233Z 08003KT 13/M02 A3036 RMK A01 T01271015  RH  037%=      5-min Rain = 0
KQU1 142234Z 07004KT 13/M01 A3036 RMK A01 T01271014  RH  038%=      5-min Rain = 0
KQU1 142235Z 08004KT 13/M01 A3036 RMK A01 T01271014  RH  038%=      5-min Rain = 0
KQU1 142236Z 08003KT 13/M01 A3036 RMK A01 T01271014  RH  038%=      5-min Rain = 0
KQU1 142237Z 09004KT 13/M01 A3036 RMK A01 T01271014  RH  038%=      5-min Rain = 0
KQU1 142238Z 09005KT 13/M01 A3036 RMK A01 T01281013  RH  038%=      5-min Rain = 0
KQU1 142239Z 12004KT 13/M01 A3036 RMK A01 T01281014  RH  037%=      5-min Rain = 0
KQU1 142240Z 10005KT 13/M01 A3036 RMK A01 T01281014  RH  037%=      5-min Rain = 0
KQU1 142241Z 08006KT 13/M01 A3036 RMK A01 T01281014  RH  037%=      5-min Rain = 0
KQU1 142242Z 07005KT 13/M01 A3036 RMK A01 T01271014  RH  038%=      5-min Rain = 0
KQU1 142243Z 09007KT 13/M01 A3036 RMK A01 T01271014  RH  038%=      5-min Rain = 0
KQU1 142244Z 08007KT 13/M02 A3036 RMK A01 T01261015  RH  038%=      5-min Rain = 0
KQU1 142245Z 10003KT 13/M02 A3036 RMK A01 T01251015  RH  038%=      5-min Rain = 0
KQU1 142246Z 09004KT 13/M01 A3036 RMK A01 T01251014  RH  038%=      5-min Rain = 0
KQU1 142247Z 09004KT 13/M01 A3036 RMK A01 T01251014  RH  038%=      5-min Rain = 0
KQU1 142248Z 10004KT 13/M01 A3036 RMK A01 T01251014  RH  038%=      5-min Rain = 0
KQU1 142249Z 10004KT 13/M01 A3036 RMK A01 T01251014  RH  038%=      5-min Rain = 0
KQU1 142250Z 10005KT 13/M01 A3036 RMK A01 T01251014  RH  038%=      5-min Rain = 0
KQU1 142251Z 11006KT 13/M01 A3036 RMK A01 T01251014  RH  038%=      5-min Rain = 0
KQU1 142252Z 10006KT 13/M01 A3036 RMK A01 T01251014  RH  038%=      5-min Rain = 0
KQU1 142253Z 08006KT 12/M01 A3036 RMK A01 T01241014  RH  038%=      5-min Rain = 0
KQU1 142254Z 08005KT 12/M02 A3036 RMK A01 T01241015  RH  038%=      5-min Rain = 0
KQU1 142255Z 07004KT 12/M02 A3036 RMK A01 T01231016  RH  038%=      5-min Rain = 0
KQU1 142256Z 08004KT 12/M02 A3036 RMK A01 T01231015  RH  038%=      5-min Rain = 0
KQU1 142257Z 07003KT 12/M01 A3036 RMK A01 T01241014  RH  038%=      5-min Rain = 0
KQU1 142258Z 08003KT 12/M01 A3036 RMK A01 T01241014  RH  038%=      5-min Rain = 0
KQU1 142259Z 07002KT 12/M01 A3036 RMK A01 T01241014  RH  038%=      5-min Rain = 0
KQU1 142300Z 07001KT 13/M01 A3036 RMK A01 T01251013  RH  038%=      5-min Rain = 0
KQU1 142301Z 07002KT 13/M01 A3036 RMK A01 T01251013  RH  038%=      5-min Rain = 0
KQU1 142302Z 06003KT 13/M01 A3036 RMK A01 T01251013  RH  038%=      5-min Rain = 0
KQU1 142303Z 07003KT 12/M01 A3036 RMK A01 T01241014  RH  038%=      5-min Rain = 0
KQU1 142304Z 05003KT 12/M01 A3036 RMK A01 T01241014  RH  039%=      5-min Rain = 0
KQU1 142305Z 07004KT 12/M01 A3036 RMK A01 T01241013  RH  039%=      5-min Rain = 0
KQU1 142306Z 07005KT 12/M01 A3036 RMK A01 T01231014  RH  039%=      5-min Rain = 0
KQU1 142307Z 08004KT 12/M01 A3036 RMK A01 T01221014  RH  039%=      5-min Rain = 0
KQU1 142308Z 10005KT 12/M01 A3036 RMK A01 T01221014  RH  039%=      5-min Rain = 0
KQU1 142309Z 09004KT 12/M02 A3036 RMK A01 T01211015  RH  039%=      5-min Rain = 0
KQU1 142310Z 08005KT 12/M01 A3036 RMK A01 T01201014  RH  039%=      5-min Rain = 0
KQU1 142311Z 08005KT 12/M01 A3036 RMK A01 T01201014  RH  039%=      5-min Rain = 0
KQU1 142312Z 09006KT 12/M01 A3036 RMK A01 T01191014  RH  040%=      5-min Rain = 0
KQU1 142313Z 09005KT 12/M01 A3036 RMK A01 T01181014  RH  040%=      5-min Rain = 0
KQU1 142314Z 08005KT 12/M01 A3036 RMK A01 T01181014  RH  040%=      5-min Rain = 0
KQU1 142315Z 08005KT 12/M01 A3036 RMK A01 T01171014  RH  040%=      5-min Rain = 0
KQU1 142316Z 08005KT 12/M01 A3036 RMK A01 T01171014  RH  040%=      5-min Rain = 0
KQU1 142317Z 09005KT 12/M02 A3036 RMK A01 T01161015  RH  040%=      5-min Rain = 0
KQU1 142318Z 09005KT 12/M02 A3036 RMK A01 T01161015  RH  040%=      5-min Rain = 0
KQU1 142319Z 09005KT 12/M02 A3036 RMK A01 T01151015  RH  040%=      5-min Rain = 0
KQU1 142320Z 10006KT 12/M02 A3036 RMK A01 T01151015  RH  041%=      5-min Rain = 0
KQU1 142321Z 10006KT 11/M02 A3036 RMK A01 T01141015  RH  041%=      5-min Rain = 0
KQU1 142322Z 10006KT 11/M02 A3036 RMK A01 T01131015  RH  041%=      5-min Rain = 0
KQU1 142323Z 10006KT 11/M02 A3036 RMK A01 T01121015  RH  041%=      5-min Rain = 0
KQU1 142324Z 10006KT 11/M02 A3036 RMK A01 T01111015  RH  041%=      5-min Rain = 0
KQU1 142325Z 10006KT 11/M02 A3036 RMK A01 T01101015  RH  042%=      5-min Rain = 0
KQU1 142326Z 10006KT 11/M02 A3036 RMK A01 T01091015  RH  042%=      5-min Rain = 0
KQU1 142327Z 10006KT 11/M02 A3036 RMK A01 T01081015  RH  042%=      5-min Rain = 0
KQU1 142328Z 11007KT 11/M02 A3036 RMK A01 T01061016  RH  043%=      5-min Rain = 0
KQU1 142329Z 10007KT 11/M02 A3036 RMK A01 T01051016  RH  043%=      5-min Rain = 0
KQU1 142330Z 10007KT 10/M02 A3037 RMK A01 T01031016  RH  044%=      5-min Rain = 0
KQU1 142331Z 11006KT 10/M02 A3037 RMK A01 T01021015  RH  044%=      5-min Rain = 0
KQU1 142332Z 11007KT 10/M02 A3037 RMK A01 T01011015  RH  044%=      5-min Rain = 0
KQU1 142333Z 11007KT 10/M02 A3037 RMK A01 T01001015  RH  045%=      5-min Rain = 0
KQU1 142334Z 11006KT 10/M02 A3037 RMK A01 T00991015  RH  045%=      5-min Rain = 0
KQU1 142335Z 11006KT 10/M02 A3037 RMK A01 T00981016  RH  045%=      5-min Rain = 0
KQU1 142336Z 11007KT 10/M02 A3037 RMK A01 T00971016  RH  045%=      5-min Rain = 0
KQU1 142337Z 11006KT 10/M02 A3037 RMK A01 T00961016  RH  045%=      5-min Rain = 0
KQU1 142338Z 11006KT 10/M02 A3037 RMK A01 T00951016  RH  046%=      5-min Rain = 0
KQU1 142339Z 11007KT 09/M02 A3037 RMK A01 T00941017  RH  046%=      5-min Rain = 0
KQU1 142340Z 11007KT 09/M02 A3037 RMK A01 T00921017  RH  046%=      5-min Rain = 0
KQU1 142341Z 11007KT 09/M02 A3037 RMK A01 T00911017  RH  047%=      5-min Rain = 0
KQU1 142342Z 11007KT 09/M02 A3037 RMK A01 T00901017  RH  047%=      5-min Rain = 0
KQU1 142343Z 12007KT 09/M02 A3037 RMK A01 T00891017  RH  047%=      5-min Rain = 0
KQU1 142344Z 12006KT 09/M02 A3037 RMK A01 T00881017  RH  048%=      5-min Rain = 0
KQU1 142345Z 12006KT 09/M02 A3037 RMK A01 T00861017  RH  048%=      5-min Rain = 0
KQU1 142346Z 12007KT 09/M02 A3037 RMK A01 T00851017  RH  048%=      5-min Rain = 0
KQU1 142347Z 12007KT 09/M02 A3037 RMK A01 T00851017  RH  049%=      5-min Rain = 0
KQU1 142348Z 12006KT 08/M02 A3037 RMK A01 T00841017  RH  049%=      5-min Rain = 0
KQU1 142349Z 12006KT 08/M02 A3037 RMK A01 T00831017  RH  049%=      5-min Rain = 0
KQU1 142350Z 12006KT 08/M02 A3037 RMK A01 T00821018  RH  049%=      5-min Rain = 0
KQU1 142351Z 12005KT 08/M02 A3037 RMK A01 T00811018  RH  050%=      5-min Rain = 0
KQU1 142352Z 12005KT 08/M02 A3037 RMK A01 T00801017  RH  050%=      5-min Rain = 0
KQU1 142353Z 13005KT 08/M02 A3037 RMK A01 T00791017  RH  050%=      5-min Rain = 0
KQU1 142354Z 13004KT 08/M02 A3037 RMK A01 T00781017  RH  051%=      5-min Rain = 0
KQU1 142355Z 14004KT 08/M02 A3037 RMK A01 T00781016  RH  051%=      5-min Rain = 0
KQU1 142356Z 14004KT 08/M02 A3037 RMK A01 T00781016  RH  052%=      5-min Rain = 0
KQU1 142357Z 14004KT 08/M02 A3037 RMK A01 T00771016  RH  052%=      5-min Rain = 0
KQU1 142358Z 15004KT 08/M02 A3038 RMK A01 T00771016  RH  052%=      5-min Rain = 0
KQU1 142359Z 16004KT 08/M02 A3038 RMK A01 T00771016  RH  052%=      5-min Rain = 0
KQU1 150000Z 16004KT 08/M02 A3038 RMK A01 T00761016  RH  052%=      5-min Rain = 0
KQU1 150001Z 15004KT 08/M02 A3038 RMK A01 T00761016  RH  052%=      5-min Rain = 0
KQU1 150002Z 16004KT 07/M02 A3038 RMK A01 T00741017  RH  052%=      5-min Rain = 0
KQU1 150003Z 17004KT 07/M02 A3038 RMK A01 T00731018  RH  053%=      5-min Rain = 0
KQU1 150004Z 18004KT 07/M02 A3038 RMK A01 T00721017  RH  053%=      5-min Rain = 0
KQU1 150005Z 18003KT 07/M02 A3038 RMK A01 T00711018  RH  053%=      5-min Rain = 0
KQU1 150006Z 17003KT 07/M02 A3038 RMK A01 T00691020  RH  053%=      5-min Rain = 0
KQU1 150007Z 17004KT 07/M02 A3038 RMK A01 T00661020  RH  054%=      5-min Rain = 0
KQU1 150008Z 17003KT 07/M02 A3038 RMK A01 T00651019  RH  055%=      5-min Rain = 0
KQU1 150009Z 17004KT 07/M02 A3038 RMK A01 T00651018  RH  055%=      5-min Rain = 0
KQU1 150010Z 17004KT 06/M02 A3038 RMK A01 T00641018  RH  056%=      5-min Rain = 0
KQU1 150011Z 17004KT 06/M02 A3038 RMK A01 T00641018  RH  056%=      5-min Rain = 0
KQU1 150012Z 17004KT 06/M02 A3038 RMK A01 T00641018  RH  056%=      5-min Rain = 0
KQU1 150013Z 17004KT 06/M02 A3038 RMK A01 T00631019  RH  056%=      5-min Rain = 0
KQU1 150014Z 17004KT 06/M02 A3038 RMK A01 T00621019  RH  056%=      5-min Rain = 0
KQU1 150015Z 17004KT 06/M02 A3038 RMK A01 T00611019  RH  056%=      5-min Rain = 0
KQU1 150016Z 18004KT 06/M02 A3038 RMK A01 T00601020  RH  057%=      5-min Rain = 0
KQU1 150017Z 17004KT 06/M02 A3038 RMK A01 T00591019  RH  057%=      5-min Rain = 0
KQU1 150018Z 17004KT 06/M02 A3038 RMK A01 T00591018  RH  058%=      5-min Rain = 0
KQU1 150019Z 17004KT 06/M02 A3038 RMK A01 T00591017  RH  058%=      5-min Rain = 0
KQU1 150020Z 17004KT 06/M02 A3039 RMK A01 T00601016  RH  058%=      5-min Rain = 0
KQU1 150021Z 17004KT 06/M02 A3039 RMK A01 T00611016  RH  058%=      5-min Rain = 0
KQU1 150022Z 18004KT 06/M02 A3039 RMK A01 T00611017  RH  057%=      5-min Rain = 0
KQU1 150023Z 17004KT 06/M02 A3039 RMK A01 T00611017  RH  057%=      5-min Rain = 0
KQU1 150024Z 17004KT 06/M02 A3039 RMK A01 T00611017  RH  057%=      5-min Rain = 0
KQU1 150025Z 17004KT 06/M02 A3039 RMK A01 T00611017  RH  057%=      5-min Rain = 0
KQU1 150026Z 17004KT 06/M02 A3039 RMK A01 T00611017  RH  057%=      5-min Rain = 0
KQU1 150027Z 17004KT 06/M02 A3039 RMK A01 T00611017  RH  058%=      5-min Rain = 0
KQU1 150028Z 18004KT 06/M02 A3039 RMK A01 T00611016  RH  057%=      5-min Rain = 0
KQU1 150029Z 18004KT 06/M02 A3039 RMK A01 T00611017  RH  057%=      5-min Rain = 0
KQU1 150030Z 18004KT 06/M02 A3039 RMK A01 T00611017  RH  057%=      5-min Rain = 0
KQU1 150031Z 18005KT 06/M02 A3039 RMK A01 T00621016  RH  057%=      5-min Rain = 0
KQU1 150032Z 18004KT 06/M02 A3039 RMK A01 T00621016  RH  057%=      5-min Rain = 0
KQU1 150033Z 19004KT 06/M02 A3039 RMK A01 T00631016  RH  057%=      5-min Rain = 0
KQU1 150034Z 19004KT 06/M02 A3039 RMK A01 T00631015  RH  057%=      5-min Rain = 0
KQU1 150035Z 19004KT 06/M02 A3039 RMK A01 T00641015  RH  057%=      5-min Rain = 0
KQU1 150036Z 19004KT 06/M02 A3039 RMK A01 T00641015  RH  057%=      5-min Rain = 0
KQU1 150037Z 19004KT 06/M02 A3039 RMK A01 T00641016  RH  057%=      5-min Rain = 0
KQU1 150038Z 19005KT 06/M02 A3039 RMK A01 T00641016  RH  056%=      5-min Rain = 0
KQU1 150039Z 19004KT 06/M02 A3039 RMK A01 T00631017  RH  057%=      5-min Rain = 0
KQU1 150040Z 19004KT 06/M02 A3039 RMK A01 T00631017  RH  057%=      5-min Rain = 0
KQU1 150041Z 19004KT 06/M02 A3039 RMK A01 T00621017  RH  057%=      5-min Rain = 0
KQU1 150042Z 19004KT 06/M02 A3039 RMK A01 T00611018  RH  057%=      5-min Rain = 0
KQU1 150043Z 19004KT 06/M02 A3039 RMK A01 T00601018  RH  057%=      5-min Rain = 0
KQU1 150044Z 19004KT 06/M02 A3039 RMK A01 T00601018  RH  058%=      5-min Rain = 0
KQU1 150045Z 18004KT 06/M02 A3039 RMK A01 T00591018  RH  058%=      5-min Rain = 0
KQU1 150046Z 19004KT 06/M02 A3039 RMK A01 T00591018  RH  058%=      5-min Rain = 0
KQU1 150047Z 18004KT 06/M02 A3039 RMK A01 T00581018  RH  058%=      5-min Rain = 0
KQU1 150048Z 18004KT 06/M02 A3039 RMK A01 T00581017  RH  058%=      5-min Rain = 0
KQU1 150049Z 18003KT 06/M02 A3039 RMK A01 T00581017  RH  058%=      5-min Rain = 0
KQU1 150050Z 18003KT 06/M02 A3039 RMK A01 T00591017  RH  058%=      5-min Rain = 0
KQU1 150051Z 18003KT 06/M02 A3039 RMK A01 T00591017  RH  058%=      5-min Rain = 0
KQU1 150052Z 17004KT 06/M02 A304 RMK A01 T00591017  RH  058%=      5-min Rain = 0
KQU1 150053Z 17004KT 06/M02 A304 RMK A01 T00601016  RH  058%=      5-min Rain = 0
KQU1 150054Z 17003KT 06/M02 A304 RMK A01 T00621015  RH  058%=      5-min Rain = 0
KQU1 150055Z 18004KT 06/M02 A304 RMK A01 T00631015  RH  057%=      5-min Rain = 0
KQU1 150056Z 18003KT 06/M02 A304 RMK A01 T00631016  RH  057%=      5-min Rain = 0
KQU1 150057Z 18003KT 06/M02 A304 RMK A01 T00621017  RH  057%=      5-min Rain = 0
KQU1 150058Z 18003KT 06/M02 A304 RMK A01 T00621017  RH  057%=      5-min Rain = 0
KQU1 150059Z 18003KT 06/M02 A304 RMK A01 T00621017  RH  057%=      5-min Rain = 0
KQU1 150100Z 19003KT 06/M02 A304 RMK A01 T00611017  RH  057%=      5-min Rain = 0
KQU1 150101Z 19004KT 06/M02 A304 RMK A01 T00601018  RH  057%=      5-min Rain = 0
KQU1 150102Z 19004KT 06/M02 A304 RMK A01 T00591018  RH  057%=      5-min Rain = 0
KQU1 150103Z 20004KT 06/M02 A304 RMK A01 T00581019  RH  058%=      5-min Rain = 0
KQU1 150104Z 20004KT 06/M02 A304 RMK A01 T00561019  RH  058%=      5-min Rain = 0
KQU1 150105Z 20004KT 06/M02 A304 RMK A01 T00551019  RH  059%=      5-min Rain = 0
KQU1 150106Z 20004KT 05/M02 A304 RMK A01 T00541020  RH  059%=      5-min Rain = 0
KQU1 150107Z 20004KT 05/M02 A304 RMK A01 T00531020  RH  059%=      5-min Rain = 0
KQU1 150108Z 20004KT 05/M02 A304 RMK A01 T00511021  RH  060%=      5-min Rain = 0
KQU1 150109Z 20004KT 05/M02 A304 RMK A01 T00501021  RH  060%=      5-min Rain = 0
KQU1 150110Z 20005KT 05/M02 A304 RMK A01 T00491021  RH  061%=      5-min Rain = 0
KQU1 150111Z 20004KT 05/M02 A304 RMK A01 T00481021  RH  061%=      5-min Rain = 0
KQU1 150112Z 20005KT 05/M02 A304 RMK A01 T00481020  RH  061%=      5-min Rain = 0
KQU1 150113Z 20004KT 05/M02 A304 RMK A01 T00481020  RH  061%=      5-min Rain = 0
KQU1 150114Z 20004KT 05/M02 A304 RMK A01 T00481021  RH  061%=      5-min Rain = 0
KQU1 150115Z 20005KT 05/M02 A304 RMK A01 T00471021  RH  062%=      5-min Rain = 0
KQU1 150116Z 20004KT 05/M02 A304 RMK A01 T00471020  RH  062%=      5-min Rain = 0
KQU1 150117Z 19004KT 05/M02 A304 RMK A01 T00461020  RH  062%=      5-min Rain = 0
KQU1 150118Z 19004KT 05/M02 A304 RMK A01 T00461020  RH  062%=      5-min Rain = 0
KQU1 150119Z 19004KT 05/M02 A304 RMK A01 T00471020  RH  062%=      5-min Rain = 0
KQU1 150120Z 19005KT 05/M02 A304 RMK A01 T00471019  RH  062%=      5-min Rain = 0
KQU1 150121Z 19005KT 05/M02 A304 RMK A01 T00481018  RH  062%=      5-min Rain = 0
KQU1 150122Z 19005KT 05/M02 A304 RMK A01 T00491019  RH  062%=      5-min Rain = 0
KQU1 150123Z 19005KT 05/M02 A304 RMK A01 T00491019  RH  061%=      5-min Rain = 0
KQU1 150124Z 19005KT 05/M02 A304 RMK A01 T00491019  RH  061%=      5-min Rain = 0
KQU1 150125Z 19005KT 05/M02 A304 RMK A01 T00481020  RH  061%=      5-min Rain = 0
KQU1 150126Z 19005KT 05/M02 A304 RMK A01 T00481020  RH  062%=      5-min Rain = 0
KQU1 150127Z 19005KT 05/M02 A3041 RMK A01 T00471020  RH  062%=      5-min Rain = 0
KQU1 150128Z 19005KT 05/M02 A3041 RMK A01 T00461020  RH  062%=      5-min Rain = 0
KQU1 150129Z 20005KT 05/M02 A3041 RMK A01 T00451021  RH  062%=      5-min Rain = 0
KQU1 150130Z 20006KT 04/M02 A3041 RMK A01 T00441021  RH  063%=      5-min Rain = 0
KQU1 150131Z 20006KT 04/M02 A3041 RMK A01 T00431021  RH  063%=      5-min Rain = 0
KQU1 150132Z 20006KT 04/M02 A3041 RMK A01 T00421022  RH  063%=      5-min Rain = 0
KQU1 150133Z 20006KT 04/M02 A3041 RMK A01 T00411022  RH  064%=      5-min Rain = 0
KQU1 150134Z 20006KT 04/M02 A3041 RMK A01 T00391023  RH  064%=      5-min Rain = 0
KQU1 150135Z 21006KT 04/M02 A3041 RMK A01 T00381023  RH  065%=      5-min Rain = 0
KQU1 150136Z 20006KT 04/M02 A3041 RMK A01 T00371023  RH  065%=      5-min Rain = 0
KQU1 150137Z 20006KT 04/M02 A3041 RMK A01 T00371023  RH  065%=      5-min Rain = 0
KQU1 150138Z 21006KT 04/M02 A3041 RMK A01 T00361022  RH  065%=      5-min Rain = 0
KQU1 150139Z 21006KT 04/M02 A3041 RMK A01 T00371021  RH  066%=      5-min Rain = 0
KQU1 150140Z 21006KT 04/M02 A3041 RMK A01 T00381021  RH  066%=      5-min Rain = 0
KQU1 150141Z 21006KT 04/M02 A3041 RMK A01 T00381021  RH  065%=      5-min Rain = 0
KQU1 150142Z 21006KT 04/M02 A3041 RMK A01 T00381021  RH  065%=      5-min Rain = 0
KQU1 150143Z 21006KT 04/M02 A3041 RMK A01 T00381021  RH  065%=      5-min Rain = 0
KQU1 150144Z 21006KT 04/M02 A3041 RMK A01 T00381021  RH  066%=      5-min Rain = 0
KQU1 150145Z 21006KT 04/M02 A3041 RMK A01 T00381020  RH  066%=      5-min Rain = 0
KQU1 150146Z 21007KT 04/M02 A3041 RMK A01 T00381020  RH  066%=      5-min Rain = 0
KQU1 150147Z 21007KT 04/M02 A3041 RMK A01 T00381020  RH  065%=      5-min Rain = 0
KQU1 150148Z 22007KT 04/M02 A3041 RMK A01 T00381021  RH  065%=      5-min Rain = 0
KQU1 150149Z 22007KT 04/M02 A3041 RMK A01 T00371021  RH  066%=      5-min Rain = 0
KQU1 150150Z 22007KT 04/M02 A3041 RMK A01 T00371021  RH  066%=      5-min Rain = 0
KQU1 150151Z 22007KT 04/M02 A3041 RMK A01 T00371020  RH  066%=      5-min Rain = 0
KQU1 150152Z 22007KT 04/M02 A3041 RMK A01 T00381019  RH  066%=      5-min Rain = 0
KQU1 150153Z 21006KT 04/M02 A3041 RMK A01 T00391018  RH  066%=      5-min Rain = 0
KQU1 150154Z 21006KT 04/M02 A3041 RMK A01 T00391018  RH  066%=      5-min Rain = 0
KQU1 150155Z 21006KT 04/M02 A3041 RMK A01 T00401018  RH  066%=      5-min Rain = 0
KQU1 150156Z 21006KT 04/M02 A3041 RMK A01 T00401019  RH  066%=      5-min Rain = 0
KQU1 150157Z 21007KT 04/M02 A3041 RMK A01 T00391019  RH  066%=      5-min Rain = 0
KQU1 150158Z 21007KT 04/M02 A3041 RMK A01 T00391019  RH  066%=      5-min Rain = 0
KQU1 150159Z 21007KT 04/M02 A3041 RMK A01 T00381020  RH  066%=      5-min Rain = 0
KQU1 150200Z 21007KT 04/M02 A3041 RMK A01 T00381020  RH  066%=      5-min Rain = 0
KQU1 150201Z 21007KT 04/M02 A3041 RMK A01 T00371020  RH  066%=      5-min Rain = 0
KQU1 150202Z 21007KT 04/M02 A3041 RMK A01 T00371020  RH  066%=      5-min Rain = 0
KQU1 150203Z 21007KT 04/M02 A3041 RMK A01 T00371019  RH  067%=      5-min Rain = 0
KQU1 150204Z 21007KT 04/M02 A3041 RMK A01 T00381019  RH  066%=      5-min Rain = 0
KQU1 150205Z 21007KT 04/M02 A3041 RMK A01 T00381019  RH  066%=      5-min Rain = 0
KQU1 150206Z 21007KT 04/M02 A3041 RMK A01 T00381019  RH  066%=      5-min Rain = 0
KQU1 150207Z 21007KT 04/M02 A3041 RMK A01 T00391018  RH  066%=      5-min Rain = 0
KQU1 150208Z 21007KT 04/M02 A3041 RMK A01 T00391018  RH  066%=      5-min Rain = 0
KQU1 150209Z 21007KT 04/M02 A3041 RMK A01 T00401018  RH  066%=      5-min Rain = 0
KQU1 150210Z 21007KT 04/M02 A3041 RMK A01 T00401018  RH  066%=      5-min Rain = 0
KQU1 150211Z 21007KT 04/M02 A3041 RMK A01 T00401018  RH  066%=      5-min Rain = 0
KQU1 150212Z 21007KT 04/M02 A3041 RMK A01 T00401018  RH  066%=      5-min Rain = 0
KQU1 150213Z 21008KT 04/M02 A3041 RMK A01 T00411018  RH  066%=      5-min Rain = 0
KQU1 150214Z 20007KT 04/M02 A3041 RMK A01 T00411017  RH  066%=      5-min Rain = 0
KQU1 150215Z 20007KT 04/M02 A3041 RMK A01 T00411017  RH  066%=      5-min Rain = 0
KQU1 150216Z 20007KT 04/M02 A3041 RMK A01 T00421018  RH  065%=      5-min Rain = 0
KQU1 150217Z 20007KT 04/M02 A3041 RMK A01 T00411018  RH  065%=      5-min Rain = 0
KQU1 150218Z 20008KT 04/M02 A3041 RMK A01 T00411018  RH  065%=      5-min Rain = 0
KQU1 150219Z 21008KT 04/M02 A3041 RMK A01 T00411017  RH  066%=      5-min Rain = 0
KQU1 150220Z 21008KT 04/M02 A3041 RMK A01 T00411017  RH  066%=      5-min Rain = 0
KQU1 150221Z 21008KT 04/M02 A3041 RMK A01 T00421016  RH  066%=      5-min Rain = 0
KQU1 150222Z 21008KT 04/M02 A3041 RMK A01 T00431016  RH  066%=      5-min Rain = 0
KQU1 150223Z 21008KT 04/M02 A3041 RMK A01 T00431016  RH  065%=      5-min Rain = 0
KQU1 150224Z 21008KT 04/M02 A3041 RMK A01 T00441016  RH  065%=      5-min Rain = 0
KQU1 150225Z 21008KT 04/M02 A3041 RMK A01 T00441016  RH  065%=      5-min Rain = 0
KQU1 150226Z 21008KT 04/M02 A3041 RMK A01 T00441015  RH  065%=      5-min Rain = 0
KQU1 150227Z 21008KT 05/M02 A3041 RMK A01 T00451015  RH  065%=      5-min Rain = 0
KQU1 150228Z 21008KT 05/M02 A3041 RMK A01 T00461015  RH  065%=      5-min Rain = 0
KQU1 150229Z 21008KT 05/M02 A3041 RMK A01 T00461015  RH  065%=      5-min Rain = 0
KQU1 150230Z 21008KT 05/M02 A3041 RMK A01 T00461015  RH  065%=      5-min Rain = 0
KQU1 150231Z 21008KT 05/M02 A3041 RMK A01 T00461015  RH  065%=      5-min Rain = 0
KQU1 150232Z 21008KT 05/M02 A3041 RMK A01 T00461015  RH  065%=      5-min Rain = 0
KQU1 150233Z 21008KT 05/M02 A3041 RMK A01 T00461015  RH  065%=      5-min Rain = 0
KQU1 150234Z 21008KT 05/M02 A3041 RMK A01 T00461015  RH  065%=      5-min Rain = 0
KQU1 150235Z 21008KT 05/M02 A3041 RMK A01 T00461015  RH  065%=      5-min Rain = 0
KQU1 150236Z 21008KT 05/M02 A3042 RMK A01 T00461015  RH  065%=      5-min Rain = 0
KQU1 150237Z 21008KT 05/M01 A3042 RMK A01 T00461014  RH  065%=      5-min Rain = 0
KQU1 150238Z 21008KT 05/M01 A3042 RMK A01 T00471014  RH  065%=      5-min Rain = 0
KQU1 150239Z 21008KT 05/M01 A3042 RMK A01 T00471014  RH  065%=      5-min Rain = 0
KQU1 150240Z 21008KT 05/M01 A3042 RMK A01 T00471014  RH  064%=      5-min Rain = 0
KQU1 150241Z 21008KT 05/M01 A3042 RMK A01 T00471014  RH  064%=      5-min Rain = 0
KQU1 150242Z 21008KT 05/M01 A3042 RMK A01 T00481014  RH  064%=      5-min Rain = 0
KQU1 150243Z 21008KT 05/M02 A3042 RMK A01 T00481015  RH  064%=      5-min Rain = 0
KQU1 150244Z 21008KT 05/M02 A3042 RMK A01 T00471015  RH  064%=      5-min Rain = 0
KQU1 150245Z 21008KT 05/M01 A3042 RMK A01 T00481014  RH  064%=      5-min Rain = 0
KQU1 150246Z 21008KT 05/M01 A3042 RMK A01 T00491014  RH  064%=      5-min Rain = 0
KQU1 150247Z 21008KT 05/M01 A3042 RMK A01 T00491014  RH  064%=      5-min Rain = 0
KQU1 150248Z 21008KT 05/M01 A3042 RMK A01 T00491014  RH  063%=      5-min Rain = 0
KQU1 150249Z 22008KT 05/M01 A3042 RMK A01 T00491014  RH  064%=      5-min Rain = 0
KQU1 150250Z 22008KT 05/M01 A3042 RMK A01 T00501014  RH  064%=      5-min Rain = 0
KQU1 150251Z 22008KT 05/M01 A3042 RMK A01 T00501014  RH  064%=      5-min Rain = 0
KQU1 150252Z 22008KT 05/M01 A3042 RMK A01 T00501014  RH  064%=      5-min Rain = 0
KQU1 150253Z 22008KT 05/M01 A3042 RMK A01 T00501013  RH  063%=      5-min Rain = 0
KQU1 150254Z 22008KT 05/M01 A3042 RMK A01 T00511013  RH  063%=      5-min Rain = 0
KQU1 150255Z 22008KT 05/M01 A3042 RMK A01 T00511014  RH  063%=      5-min Rain = 0
KQU1 150256Z 22008KT 05/M01 A3042 RMK A01 T00511014  RH  063%=      5-min Rain = 0
KQU1 150257Z 21008KT 05/M02 A3042 RMK A01 T00501015  RH  063%=      5-min Rain = 0
KQU1 150258Z 22008KT 05/M02 A3042 RMK A01 T00491015  RH  063%=      5-min Rain = 0
KQU1 150259Z 21008KT 05/M02 A3042 RMK A01 T00491015  RH  063%=      5-min Rain = 0
KQU1 150300Z 21008KT 05/M02 A3042 RMK A01 T00481015  RH  064%=      5-min Rain = 0
KQU1 150301Z 21008KT 05/M02 A3042 RMK A01 T00481015  RH  064%=      5-min Rain = 0
KQU1 150302Z 21008KT 05/M02 A3042 RMK A01 T00471016  RH  064%=      5-min Rain = 0
KQU1 150303Z 22008KT 05/M02 A3042 RMK A01 T00461016  RH  064%=      5-min Rain = 0
KQU1 150304Z 22008KT 05/M02 A3042 RMK A01 T00461016  RH  064%=      5-min Rain = 0
KQU1 150305Z 22008KT 05/M02 A3042 RMK A01 T00451016  RH  064%=      5-min Rain = 0
KQU1 150306Z 22008KT 04/M02 A3042 RMK A01 T00441017  RH  065%=      5-min Rain = 0
KQU1 150307Z 22008KT 04/M02 A3042 RMK A01 T00431017  RH  065%=      5-min Rain = 0
KQU1 150308Z 22007KT 04/M02 A3042 RMK A01 T00431017  RH  065%=      5-min Rain = 0
KQU1 150309Z 22007KT 04/M02 A3042 RMK A01 T00421017  RH  065%=      5-min Rain = 0
KQU1 150310Z 22007KT 04/M02 A3042 RMK A01 T00411018  RH  066%=      5-min Rain = 0
KQU1 150311Z 22007KT 04/M02 A3042 RMK A01 T00401018  RH  066%=      5-min Rain = 0
KQU1 150312Z 22007KT 04/M02 A3042 RMK A01 T00401018  RH  066%=      5-min Rain = 0
KQU1 150313Z 22007KT 04/M02 A3042 RMK A01 T00391018  RH  066%=      5-min Rain = 0
KQU1 150314Z 22007KT 04/M02 A3042 RMK A01 T00381018  RH  067%=      5-min Rain = 0
KQU1 150315Z 22007KT 04/M02 A3042 RMK A01 T00381018  RH  067%=      5-min Rain = 0
KQU1 150316Z 22008KT 04/M02 A3042 RMK A01 T00371018  RH  067%=      5-min Rain = 0
KQU1 150317Z 22008KT 04/M02 A3042 RMK A01 T00371018  RH  067%=      5-min Rain = 0
KQU1 150318Z 22008KT 04/M02 A3042 RMK A01 T00361018  RH  067%=      5-min Rain = 0
KQU1 150319Z 22008KT 04/M02 A3042 RMK A01 T00361018  RH  068%=      5-min Rain = 0
KQU1 150320Z 22008KT 04/M02 A3042 RMK A01 T00361018  RH  068%=      5-min Rain = 0
KQU1 150321Z 22007KT 04/M02 A3042 RMK A01 T00361017  RH  068%=      5-min Rain = 0
KQU1 150322Z 22007KT 04/M02 A3042 RMK A01 T00371017  RH  068%=      5-min Rain = 0
KQU1 150323Z 22007KT 04/M02 A3042 RMK A01 T00371017  RH  068%=      5-min Rain = 0
KQU1 150324Z 22007KT 04/M02 A3042 RMK A01 T00371017  RH  068%=      5-min Rain = 0
KQU1 150325Z 22007KT 04/M02 A3042 RMK A01 T00371018  RH  067%=      5-min Rain = 0
KQU1 150326Z 22007KT 04/M02 A3042 RMK A01 T00361018  RH  068%=      5-min Rain = 0
KQU1 150327Z 22007KT 04/M02 A3042 RMK A01 T00361018  RH  068%=      5-min Rain = 0
KQU1 150328Z 22007KT 04/M02 A3042 RMK A01 T00361018  RH  068%=      5-min Rain = 0
KQU1 150329Z 22007KT 04/M02 A3042 RMK A01 T00361018  RH  068%=      5-min Rain = 0
KQU1 150330Z 22007KT 04/M02 A3042 RMK A01 T00361018  RH  068%=      5-min Rain = 0
KQU1 150331Z 22007KT 04/M02 A3042 RMK A01 T00361018  RH  068%=      5-min Rain = 0
KQU1 150332Z 21007KT 04/M02 A3042 RMK A01 T00361018  RH  068%=      5-min Rain = 0
KQU1 150333Z 21007KT 04/M02 A3042 RMK A01 T00361018  RH  068%=      5-min Rain = 0
KQU1 150334Z 21007KT 04/M02 A3042 RMK A01 T00351018  RH  068%=      5-min Rain = 0
KQU1 150335Z 21007KT 03/M02 A3043 RMK A01 T00341019  RH  068%=      5-min Rain = 0
KQU1 150336Z 21007KT 03/M02 A3043 RMK A01 T00331020  RH  068%=      5-min Rain = 0
KQU1 150337Z 21008KT 03/M02 A3042 RMK A01 T00331019  RH  069%=      5-min Rain = 0
KQU1 150338Z 21007KT 03/M02 A3042 RMK A01 T00331019  RH  069%=      5-min Rain = 0
KQU1 150339Z 21007KT 03/M02 A3042 RMK A01 T00331018  RH  069%=      5-min Rain = 0
KQU1 150340Z 21007KT 03/M02 A3042 RMK A01 T00341018  RH  069%=      5-min Rain = 0
KQU1 150341Z 21008KT 03/M02 A3042 RMK A01 T00341018  RH  069%=      5-min Rain = 0
KQU1 150342Z 22007KT 03/M02 A3042 RMK A01 T00341019  RH  068%=      5-min Rain = 0
KQU1 150343Z 22007KT 03/M02 A3042 RMK A01 T00331019  RH  069%=      5-min Rain = 0
KQU1 150344Z 21007KT 03/M02 A3042 RMK A01 T00331019  RH  069%=      5-min Rain = 0
KQU1 150345Z 22008KT 03/M02 A3042 RMK A01 T00341019  RH  069%=      5-min Rain = 0
KQU1 150346Z 22008KT 03/M02 A3042 RMK A01 T00331019  RH  069%=      5-min Rain = 0
KQU1 150347Z 22007KT 03/M02 A3042 RMK A01 T00331019  RH  069%=      5-min Rain = 0
KQU1 150348Z 22008KT 03/M02 A3042 RMK A01 T00321020  RH  069%=      5-min Rain = 0
KQU1 150349Z 22008KT 03/M02 A3042 RMK A01 T00311020  RH  069%=      5-min Rain = 0
KQU1 150350Z 22008KT 03/M02 A3042 RMK A01 T00311019  RH  070%=      5-min Rain = 0
KQU1 150351Z 22009KT 03/M02 A3042 RMK A01 T00321018  RH  070%=      5-min Rain = 0
KQU1 150352Z 22008KT 03/M02 A3042 RMK A01 T00331017  RH  070%=      5-min Rain = 0
KQU1 150353Z 22008KT 03/M02 A3042 RMK A01 T00341016  RH  069%=      5-min Rain = 0
KQU1 150354Z 22008KT 04/M02 A3042 RMK A01 T00361016  RH  069%=      5-min Rain = 0
KQU1 150355Z 22008KT 04/M02 A3042 RMK A01 T00371016  RH  068%=      5-min Rain = 0
KQU1 150356Z 22007KT 04/M02 A3042 RMK A01 T00391015  RH  068%=      5-min Rain = 0
KQU1 150357Z 22007KT 04/M02 A3042 RMK A01 T00401015  RH  067%=      5-min Rain = 0
KQU1 150358Z 22007KT 04/M02 A3042 RMK A01 T00411016  RH  067%=      5-min Rain = 0
KQU1 150359Z 22008KT 04/M02 A3042 RMK A01 T00401017  RH  066%=      5-min Rain = 0
KQU1 150400Z 22008KT 04/M02 A3042 RMK A01 T00391018  RH  066%=      5-min Rain = 0
KQU1 150401Z 22008KT 04/M02 A3042 RMK A01 T00371019  RH  066%=      5-min Rain = 0
KQU1 150402Z 22008KT 04/M02 A3042 RMK A01 T00361020  RH  067%=      5-min Rain = 0
KQU1 150403Z 22008KT 03/M02 A3042 RMK A01 T00341021  RH  067%=      5-min Rain = 0
KQU1 150404Z 22008KT 03/M02 A3042 RMK A01 T00321021  RH  068%=      5-min Rain = 0
KQU1 150405Z 22008KT 03/M02 A3042 RMK A01 T00311021  RH  069%=      5-min Rain = 0
KQU1 150406Z 22008KT 03/M02 A3042 RMK A01 T00311021  RH  069%=      5-min Rain = 0
KQU1 150407Z 22008KT 03/M02 A3042 RMK A01 T00301020  RH  069%=      5-min Rain = 0
KQU1 150408Z 22007KT 03/M02 A3042 RMK A01 T00301020  RH  070%=      5-min Rain = 0
KQU1 150409Z 22008KT 03/M02 A3042 RMK A01 T00291020  RH  070%=      5-min Rain = 0
KQU1 150410Z 22008KT 03/M02 A3042 RMK A01 T00301019  RH  070%=      5-min Rain = 0
KQU1 150411Z 22007KT 03/M02 A3042 RMK A01 T00301019  RH  070%=      5-min Rain = 0
KQU1 150412Z 22007KT 03/M02 A3042 RMK A01 T00311018  RH  070%=      5-min Rain = 0
KQU1 150413Z 22007KT 03/M02 A3042 RMK A01 T00311018  RH  070%=      5-min Rain = 0
KQU1 150414Z 22007KT 03/M02 A3042 RMK A01 T00321018  RH  070%=      5-min Rain = 0
KQU1 150415Z 22007KT 03/M02 A3042 RMK A01 T00321018  RH  070%=      5-min Rain = 0
KQU1 150416Z 22007KT 03/M02 A3042 RMK A01 T00321018  RH  070%=      5-min Rain = 0
KQU1 150417Z 22007KT 03/M02 A3042 RMK A01 T00331018  RH  070%=      5-min Rain = 0
KQU1 150418Z 22007KT 03/M02 A3042 RMK A01 T00331018  RH  069%=      5-min Rain = 0
KQU1 150419Z 22007KT 03/M02 A3042 RMK A01 T00331017  RH  069%=      5-min Rain = 0
KQU1 150420Z 22007KT 03/M02 A3042 RMK A01 T00341017  RH  069%=      5-min Rain = 0
KQU1 150421Z 22007KT 03/M02 A3042 RMK A01 T00331018  RH  069%=      5-min Rain = 0
KQU1 150422Z 22007KT 03/M02 A3042 RMK A01 T00331018  RH  069%=      5-min Rain = 0
KQU1 150423Z 22007KT 03/M02 A3042 RMK A01 T00331018  RH  069%=      5-min Rain = 0
KQU1 150424Z 22007KT 03/M02 A3042 RMK A01 T00331018  RH  069%=      5-min Rain = 0
KQU1 150425Z 22007KT 03/M02 A3042 RMK A01 T00331018  RH  070%=      5-min Rain = 0
KQU1 150426Z 22007KT 03/M02 A3042 RMK A01 T00331018  RH  069%=      5-min Rain = 0
KQU1 150427Z 22007KT 03/M02 A3042 RMK A01 T00321019  RH  069%=      5-min Rain = 0
KQU1 150428Z 22007KT 03/M02 A3042 RMK A01 T00311020  RH  069%=      5-min Rain = 0
KQU1 150429Z 22006KT 03/M02 A3042 RMK A01 T00301019  RH  070%=      5-min Rain = 0
KQU1 150430Z 22007KT 03/M02 A3042 RMK A01 T00311017  RH  071%=      5-min Rain = 0
KQU1 150431Z 22007KT 03/M02 A3042 RMK A01 T00321016  RH  071%=      5-min Rain = 0
KQU1 150432Z 22007KT 03/M02 A3042 RMK A01 T00331016  RH  070%=      5-min Rain = 0
KQU1 150433Z 22007KT 03/M02 A3042 RMK A01 T00331017  RH  069%=      5-min Rain = 0
KQU1 150434Z 22007KT 03/M02 A3042 RMK A01 T00321018  RH  069%=      5-min Rain = 0
KQU1 150435Z 22007KT 03/M02 A3042 RMK A01 T00321018  RH  069%=      5-min Rain = 0
KQU1 150436Z 22006KT 03/M02 A3042 RMK A01 T00321018  RH  069%=      5-min Rain = 0
KQU1 150437Z 22005KT 03/M02 A3042 RMK A01 T00321019  RH  069%=      5-min Rain = 0
KQU1 150438Z 22006KT 03/M02 A3042 RMK A01 T00321019  RH  069%=      5-min Rain = 0
KQU1 150439Z 22006KT 03/M02 A3042 RMK A01 T00321019  RH  069%=      5-min Rain = 0
KQU1 150440Z 23006KT 03/M02 A3042 RMK A01 T00311019  RH  070%=      5-min Rain = 0
KQU1 150441Z 23007KT 03/M02 A3042 RMK A01 T00311019  RH  070%=      5-min Rain = 0
KQU1 150442Z 23007KT 03/M02 A3042 RMK A01 T00311019  RH  070%=      5-min Rain = 0
KQU1 150443Z 23007KT 03/M02 A3042 RMK A01 T00311019  RH  070%=      5-min Rain = 0
KQU1 150444Z 22006KT 03/M02 A3042 RMK A01 T00311018  RH  070%=      5-min Rain = 0
KQU1 150445Z 22006KT 03/M02 A3042 RMK A01 T00311018  RH  070%=      5-min Rain = 0
KQU1 150446Z 22006KT 03/M02 A3042 RMK A01 T00311019  RH  070%=      5-min Rain = 0
KQU1 150447Z 22006KT 03/M02 A3042 RMK A01 T00311019  RH  070%=      5-min Rain = 0
KQU1 150448Z 22006KT 03/M02 A3042 RMK A01 T00301019  RH  070%=      5-min Rain = 0
KQU1 150449Z 22006KT 03/M02 A3042 RMK A01 T00301019  RH  070%=      5-min Rain = 0
KQU1 150450Z 22007KT 03/M02 A3042 RMK A01 T00301018  RH  070%=      5-min Rain = 0
KQU1 150451Z 22007KT 03/M02 A3042 RMK A01 T00301018  RH  070%=      5-min Rain = 0
KQU1 150452Z 22007KT 03/M02 A3042 RMK A01 T00311017  RH  071%=      5-min Rain = 0
KQU1 150453Z 23007KT 03/M02 A3042 RMK A01 T00311017  RH  071%=      5-min Rain = 0
KQU1 150454Z 23007KT 03/M02 A3042 RMK A01 T00321017  RH  070%=      5-min Rain = 0
KQU1 150455Z 22007KT 03/M02 A3042 RMK A01 T00321017  RH  070%=      5-min Rain = 0
KQU1 150456Z 22007KT 03/M02 A3042 RMK A01 T00321016  RH  070%=      5-min Rain = 0
KQU1 150457Z 22007KT 03/M02 A3042 RMK A01 T00331017  RH  070%=      5-min Rain = 0
KQU1 150458Z 22007KT 03/M02 A3042 RMK A01 T00321017  RH  070%=      5-min Rain = 0
KQU1 150459Z 22007KT 03/M02 A3042 RMK A01 T00321017  RH  070%=      5-min Rain = 0
KQU1 150500Z 22007KT 03/M02 A3042 RMK A01 T00321017  RH  070%=      5-min Rain = 0
KQU1 150501Z 22007KT 03/M02 A3042 RMK A01 T00321018  RH  070%=      5-min Rain = 0
KQU1 150502Z 22007KT 03/M02 A3042 RMK A01 T00321018  RH  070%=      5-min Rain = 0
KQU1 150503Z 22007KT 03/M02 A3042 RMK A01 T00321018  RH  070%=      5-min Rain = 0
KQU1 150504Z 22008KT 03/M02 A3042 RMK A01 T00311018  RH  070%=      5-min Rain = 0
KQU1 150505Z 22007KT 03/M02 A3042 RMK A01 T00311018  RH  070%=      5-min Rain = 0
KQU1 150506Z 22007KT 03/M02 A3042 RMK A01 T00311018  RH  070%=      5-min Rain = 0
KQU1 150507Z 22007KT 03/M02 A3042 RMK A01 T00311018  RH  070%=      5-min Rain = 0
KQU1 150508Z 22007KT 03/M02 A3042 RMK A01 T00311018  RH  070%=      5-min Rain = 0
KQU1 150509Z 22007KT 03/M02 A3042 RMK A01 T00311018  RH  070%=      5-min Rain = 0
KQU1 150510Z 22007KT 03/M02 A3042 RMK A01 T00321018  RH  070%=      5-min Rain = 0
KQU1 150511Z 22007KT 03/M02 A3042 RMK A01 T00311018  RH  070%=      5-min Rain = 0
KQU1 150512Z 22007KT 03/M02 A3042 RMK A01 T00311018  RH  070%=      5-min Rain = 0
KQU1 150513Z 23007KT 03/M02 A3042 RMK A01 T00311019  RH  070%=      5-min Rain = 0
KQU1 150514Z 23007KT 03/M02 A3042 RMK A01 T00301018  RH  070%=      5-min Rain = 0
KQU1 150515Z 23007KT 03/M02 A3042 RMK A01 T00301018  RH  070%=      5-min Rain = 0
KQU1 150516Z 23007KT 03/M02 A3042 RMK A01 T00301018  RH  071%=      5-min Rain = 0
KQU1 150517Z 22007KT 03/M02 A3043 RMK A01 T00311017  RH  071%=      5-min Rain = 0
KQU1 150518Z 22007KT 03/M02 A3043 RMK A01 T00311017  RH  071%=      5-min Rain = 0
KQU1 150519Z 22006KT 03/M02 A3043 RMK A01 T00321016  RH  071%=      5-min Rain = 0
KQU1 150520Z 22007KT 03/M02 A3043 RMK A01 T00321016  RH  070%=      5-min Rain = 0
KQU1 150521Z 22007KT 03/M02 A3043 RMK A01 T00331016  RH  070%=      5-min Rain = 0
KQU1 150522Z 23007KT 03/M02 A3043 RMK A01 T00331016  RH  070%=      5-min Rain = 0
KQU1 150523Z 23007KT 03/M02 A3043 RMK A01 T00341016  RH  070%=      5-min Rain = 0
KQU1 150524Z 23007KT 03/M02 A3043 RMK A01 T00341016  RH  070%=      5-min Rain = 0
KQU1 150525Z 23007KT 03/M02 A3043 RMK A01 T00341016  RH  070%=      5-min Rain = 0
KQU1 150526Z 23006KT 03/M02 A3043 RMK A01 T00341016  RH  070%=      5-min Rain = 0
KQU1 150527Z 23007KT 04/M02 A3043 RMK A01 T00351016  RH  069%=      5-min Rain = 0
KQU1 150528Z 23007KT 04/M02 A3043 RMK A01 T00351016  RH  069%=      5-min Rain = 0
KQU1 150529Z 23007KT 04/M02 A3043 RMK A01 T00351016  RH  069%=      5-min Rain = 0
KQU1 150530Z 23007KT 04/M02 A3043 RMK A01 T00351016  RH  069%=      5-min Rain = 0
KQU1 150531Z 23007KT 04/M02 A3043 RMK A01 T00351016  RH  069%=      5-min Rain = 0
KQU1 150532Z 23007KT 04/M02 A3043 RMK A01 T00351016  RH  069%=      5-min Rain = 0
KQU1 150533Z 23007KT 04/M02 A3043 RMK A01 T00351016  RH  069%=      5-min Rain = 0
KQU1 150534Z 23007KT 04/M02 A3043 RMK A01 T00351016  RH  069%=      5-min Rain = 0
KQU1 150535Z 23008KT 04/M02 A3043 RMK A01 T00351016  RH  069%=      5-min Rain = 0
KQU1 150536Z 23007KT 04/M02 A3043 RMK A01 T00351015  RH  069%=      5-min Rain = 0
KQU1 150537Z 23006KT 04/M02 A3043 RMK A01 T00361015  RH  069%=      5-min Rain = 0
KQU1 150538Z 24006KT 04/M02 A3043 RMK A01 T00361015  RH  069%=      5-min Rain = 0
KQU1 150539Z 24006KT 04/M02 A3043 RMK A01 T00371015  RH  069%=      5-min Rain = 0
KQU1 150540Z 24006KT 04/M02 A3043 RMK A01 T00371015  RH  069%=      5-min Rain = 0
KQU1 150541Z 25006KT 04/M02 A3043 RMK A01 T00381015  RH  068%=      5-min Rain = 0
KQU1 150542Z 25006KT 04/M02 A3043 RMK A01 T00381015  RH  068%=      5-min Rain = 0
KQU1 150543Z 25006KT 04/M02 A3043 RMK A01 T00371015  RH  068%=      5-min Rain = 0
KQU1 150544Z 26006KT 04/M02 A3043 RMK A01 T00371015  RH  068%=      5-min Rain = 0
KQU1 150545Z 26007KT 04/M02 A3043 RMK A01 T00371015  RH  069%=      5-min Rain = 0
KQU1 150546Z 26007KT 04/M02 A3043 RMK A01 T00381015  RH  069%=      5-min Rain = 0
KQU1 150547Z 26007KT 04/M01 A3043 RMK A01 T00391014  RH  069%=      5-min Rain = 0
KQU1 150548Z 26007KT 04/M01 A3043 RMK A01 T00391014  RH  068%=      5-min Rain = 0
KQU1 150549Z 26007KT 04/M01 A3043 RMK A01 T00401013  RH  068%=      5-min Rain = 0
KQU1 150550Z 26008KT 04/M01 A3043 RMK A01 T00411013  RH  068%=      5-min Rain = 0
KQU1 150551Z 26008KT 04/M01 A3043 RMK A01 T00421013  RH  067%=      5-min Rain = 0
KQU1 150552Z 27008KT 04/M01 A3043 RMK A01 T00431013  RH  067%=      5-min Rain = 0
KQU1 150553Z 27008KT 04/M01 A3043 RMK A01 T00441013  RH  067%=      5-min Rain = 0
KQU1 150554Z 27008KT 04/M01 A3043 RMK A01 T00441013  RH  066%=      5-min Rain = 0
KQU1 150555Z 27008KT 04/M01 A3043 RMK A01 T00441013  RH  066%=      5-min Rain = 0
KQU1 150556Z 27008KT 04/M01 A3043 RMK A01 T00441014  RH  066%=      5-min Rain = 0
KQU1 150557Z 26007KT 04/M01 A3043 RMK A01 T00431014  RH  066%=      5-min Rain = 0
KQU1 150558Z 26007KT 04/M01 A3043 RMK A01 T00431014  RH  066%=      5-min Rain = 0
KQU1 150559Z 26007KT 04/M01 A3043 RMK A01 T00431014  RH  066%=      5-min Rain = 0

Page generated in 0.1308 seconds.